<?xml version="1.0" encoding="UTF-8" standalone="no" ?>
<gpx xmlns="http://www.topografix.com/GPX/1/1" xmlns:xsi="http://www.w3.org/2001/XMLSchema-instance" xsi:schemaLocation="http://www.topografix.com/GPX/1/1 http://www.topografix.com/GPX/1/1/gpx.xsd" version="1.1" creator="VisuGPX - https://www.visugpx.com">
  <metadata>
    <name>DH Plateau des Petites Roches</name>
  </metadata>
  <wpt lat="45.31652" lon="5.89215">
    <ele>909.4</ele>
  </wpt>
  <wpt lat="45.31652" lon="5.89215">
    <ele>909.4</ele>
  </wpt>
  <trk>
    <name><![CDATA[14967403-Tour des 3 villages 37kms 1100m D+]]></name>
    <extensions>
      <line xmlns="http://www.topografix.com/GPX/gpx_style/0/2">
        <color>00FF00</color>
        <width>4</width>
      </line>
    </extensions>
    <trkseg>
      <trkpt lat="45.3126" lon="5.88732">
        <ele>956</ele>
        <time>2022-06-15T12:27:34Z</time>
      </trkpt>
      <trkpt lat="45.31259" lon="5.88739">
        <ele>956</ele>
        <time>2022-06-15T12:27:35Z</time>
      </trkpt>
      <trkpt lat="45.31261" lon="5.8874">
        <ele>955</ele>
        <time>2022-06-15T12:27:36Z</time>
      </trkpt>
      <trkpt lat="45.31263" lon="5.88745">
        <ele>955</ele>
        <time>2022-06-15T12:27:37Z</time>
      </trkpt>
      <trkpt lat="45.31307" lon="5.88747">
        <ele>953</ele>
        <time>2022-06-15T12:27:47Z</time>
      </trkpt>
      <trkpt lat="45.31358" lon="5.88765">
        <ele>951</ele>
        <time>2022-06-15T12:27:59Z</time>
      </trkpt>
      <trkpt lat="45.31446" lon="5.8879">
        <ele>951</ele>
        <time>2022-06-15T12:28:20Z</time>
      </trkpt>
      <trkpt lat="45.31545" lon="5.88823">
        <ele>950</ele>
        <time>2022-06-15T12:28:44Z</time>
      </trkpt>
      <trkpt lat="45.31568" lon="5.88826">
        <ele>950</ele>
        <time>2022-06-15T12:28:49Z</time>
      </trkpt>
      <trkpt lat="45.31593" lon="5.88821">
        <ele>951</ele>
        <time>2022-06-15T12:28:55Z</time>
      </trkpt>
      <trkpt lat="45.31609" lon="5.88811">
        <ele>952</ele>
        <time>2022-06-15T12:28:59Z</time>
      </trkpt>
      <trkpt lat="45.31642" lon="5.88795">
        <ele>954</ele>
        <time>2022-06-15T12:29:07Z</time>
      </trkpt>
      <trkpt lat="45.31652" lon="5.88794">
        <ele>954</ele>
        <time>2022-06-15T12:29:10Z</time>
      </trkpt>
      <trkpt lat="45.31727" lon="5.88845">
        <ele>948</ele>
        <time>2022-06-15T12:29:29Z</time>
      </trkpt>
      <trkpt lat="45.31744" lon="5.8885">
        <ele>948</ele>
        <time>2022-06-15T12:29:33Z</time>
      </trkpt>
      <trkpt lat="45.31765" lon="5.88851">
        <ele>948</ele>
        <time>2022-06-15T12:29:38Z</time>
      </trkpt>
      <trkpt lat="45.31778" lon="5.88857">
        <ele>949</ele>
        <time>2022-06-15T12:29:41Z</time>
      </trkpt>
      <trkpt lat="45.31803" lon="5.88884">
        <ele>948</ele>
        <time>2022-06-15T12:29:49Z</time>
      </trkpt>
      <trkpt lat="45.31818" lon="5.88895">
        <ele>949</ele>
        <time>2022-06-15T12:29:53Z</time>
      </trkpt>
      <trkpt lat="45.31872" lon="5.88919">
        <ele>951</ele>
        <time>2022-06-15T12:30:06Z</time>
      </trkpt>
      <trkpt lat="45.31881" lon="5.88934">
        <ele>951</ele>
        <time>2022-06-15T12:30:09Z</time>
      </trkpt>
      <trkpt lat="45.31899" lon="5.88938">
        <ele>952</ele>
        <time>2022-06-15T12:30:13Z</time>
      </trkpt>
      <trkpt lat="45.31911" lon="5.88949">
        <ele>953</ele>
        <time>2022-06-15T12:30:17Z</time>
      </trkpt>
      <trkpt lat="45.31921" lon="5.88948">
        <ele>954</ele>
        <time>2022-06-15T12:30:19Z</time>
      </trkpt>
      <trkpt lat="45.31994" lon="5.89023">
        <ele>962</ele>
        <time>2022-06-15T12:30:40Z</time>
      </trkpt>
      <trkpt lat="45.32023" lon="5.89071">
        <ele>963</ele>
        <time>2022-06-15T12:30:50Z</time>
      </trkpt>
      <trkpt lat="45.32031" lon="5.89088">
        <ele>963</ele>
        <time>2022-06-15T12:30:54Z</time>
      </trkpt>
      <trkpt lat="45.32048" lon="5.89106">
        <ele>964</ele>
        <time>2022-06-15T12:30:59Z</time>
      </trkpt>
      <trkpt lat="45.32075" lon="5.89125">
        <ele>965</ele>
        <time>2022-06-15T12:31:06Z</time>
      </trkpt>
      <trkpt lat="45.32091" lon="5.89132">
        <ele>967</ele>
        <time>2022-06-15T12:31:10Z</time>
      </trkpt>
      <trkpt lat="45.32111" lon="5.89148">
        <ele>967</ele>
        <time>2022-06-15T12:31:15Z</time>
      </trkpt>
      <trkpt lat="45.32139" lon="5.89177">
        <ele>966</ele>
        <time>2022-06-15T12:31:23Z</time>
      </trkpt>
      <trkpt lat="45.32159" lon="5.89192">
        <ele>966</ele>
        <time>2022-06-15T12:31:28Z</time>
      </trkpt>
      <trkpt lat="45.32192" lon="5.89236">
        <ele>965</ele>
        <time>2022-06-15T12:31:39Z</time>
      </trkpt>
      <trkpt lat="45.3222" lon="5.89279">
        <ele>962</ele>
        <time>2022-06-15T12:31:49Z</time>
      </trkpt>
      <trkpt lat="45.32235" lon="5.8929">
        <ele>963</ele>
        <time>2022-06-15T12:31:52Z</time>
      </trkpt>
      <trkpt lat="45.32253" lon="5.89317">
        <ele>961</ele>
        <time>2022-06-15T12:31:59Z</time>
      </trkpt>
      <trkpt lat="45.32285" lon="5.89383">
        <ele>950</ele>
        <time>2022-06-15T12:32:12Z</time>
      </trkpt>
      <trkpt lat="45.32338" lon="5.89438">
        <ele>945</ele>
        <time>2022-06-15T12:32:27Z</time>
      </trkpt>
      <trkpt lat="45.32358" lon="5.89465">
        <ele>943</ele>
        <time>2022-06-15T12:32:34Z</time>
      </trkpt>
      <trkpt lat="45.32387" lon="5.89513">
        <ele>938</ele>
        <time>2022-06-15T12:32:44Z</time>
      </trkpt>
      <trkpt lat="45.32419" lon="5.89562">
        <ele>935</ele>
        <time>2022-06-15T12:32:55Z</time>
      </trkpt>
      <trkpt lat="45.32431" lon="5.89625">
        <ele>930</ele>
        <time>2022-06-15T12:33:06Z</time>
      </trkpt>
      <trkpt lat="45.32442" lon="5.89653">
        <ele>929</ele>
        <time>2022-06-15T12:33:11Z</time>
      </trkpt>
      <trkpt lat="45.32457" lon="5.89682">
        <ele>928</ele>
        <time>2022-06-15T12:33:17Z</time>
      </trkpt>
      <trkpt lat="45.32489" lon="5.89752">
        <ele>925</ele>
        <time>2022-06-15T12:33:30Z</time>
      </trkpt>
      <trkpt lat="45.325" lon="5.89767">
        <ele>924</ele>
        <time>2022-06-15T12:33:34Z</time>
      </trkpt>
      <trkpt lat="45.32526" lon="5.89792">
        <ele>923</ele>
        <time>2022-06-15T12:33:41Z</time>
      </trkpt>
      <trkpt lat="45.32559" lon="5.89834">
        <ele>919</ele>
        <time>2022-06-15T12:33:52Z</time>
      </trkpt>
      <trkpt lat="45.32587" lon="5.89877">
        <ele>918</ele>
        <time>2022-06-15T12:34:01Z</time>
      </trkpt>
      <trkpt lat="45.32607" lon="5.89899">
        <ele>918</ele>
        <time>2022-06-15T12:34:07Z</time>
      </trkpt>
      <trkpt lat="45.32675" lon="5.90012">
        <ele>918</ele>
        <time>2022-06-15T12:34:32Z</time>
      </trkpt>
      <trkpt lat="45.32771" lon="5.90166">
        <ele>918</ele>
        <time>2022-06-15T12:35:05Z</time>
      </trkpt>
      <trkpt lat="45.32786" lon="5.90206">
        <ele>917</ele>
        <time>2022-06-15T12:35:13Z</time>
      </trkpt>
      <trkpt lat="45.32831" lon="5.90345">
        <ele>915</ele>
        <time>2022-06-15T12:35:38Z</time>
      </trkpt>
      <trkpt lat="45.32837" lon="5.90361">
        <ele>914</ele>
        <time>2022-06-15T12:35:41Z</time>
      </trkpt>
      <trkpt lat="45.32847" lon="5.90377">
        <ele>913</ele>
        <time>2022-06-15T12:35:45Z</time>
      </trkpt>
      <trkpt lat="45.32853" lon="5.90389">
        <ele>912</ele>
        <time>2022-06-15T12:35:47Z</time>
      </trkpt>
      <trkpt lat="45.32882" lon="5.9042">
        <ele>910</ele>
        <time>2022-06-15T12:35:55Z</time>
      </trkpt>
      <trkpt lat="45.32903" lon="5.90432">
        <ele>909</ele>
        <time>2022-06-15T12:36:01Z</time>
      </trkpt>
      <trkpt lat="45.32925" lon="5.9044">
        <ele>908</ele>
        <time>2022-06-15T12:36:06Z</time>
      </trkpt>
      <trkpt lat="45.32937" lon="5.90508">
        <ele>899</ele>
        <time>2022-06-15T12:36:18Z</time>
      </trkpt>
      <trkpt lat="45.32947" lon="5.90508">
        <ele>899</ele>
        <time>2022-06-15T12:36:20Z</time>
      </trkpt>
      <trkpt lat="45.3298" lon="5.90486">
        <ele>900</ele>
        <time>2022-06-15T12:36:28Z</time>
      </trkpt>
      <trkpt lat="45.3299" lon="5.90482">
        <ele>900</ele>
        <time>2022-06-15T12:36:31Z</time>
      </trkpt>
      <trkpt lat="45.33033" lon="5.90476">
        <ele>898</ele>
        <time>2022-06-15T12:36:41Z</time>
      </trkpt>
      <trkpt lat="45.33059" lon="5.90478">
        <ele>896</ele>
        <time>2022-06-15T12:36:47Z</time>
      </trkpt>
      <trkpt lat="45.33074" lon="5.90472">
        <ele>896</ele>
        <time>2022-06-15T12:36:51Z</time>
      </trkpt>
      <trkpt lat="45.33089" lon="5.90473">
        <ele>896</ele>
        <time>2022-06-15T12:36:54Z</time>
      </trkpt>
      <trkpt lat="45.33109" lon="5.90474">
        <ele>897</ele>
        <time>2022-06-15T12:36:59Z</time>
      </trkpt>
      <trkpt lat="45.33151" lon="5.90483">
        <ele>898</ele>
        <time>2022-06-15T12:37:09Z</time>
      </trkpt>
      <trkpt lat="45.3316" lon="5.90477">
        <ele>900</ele>
        <time>2022-06-15T12:37:11Z</time>
      </trkpt>
      <trkpt lat="45.33168" lon="5.90466">
        <ele>901</ele>
        <time>2022-06-15T12:37:14Z</time>
      </trkpt>
      <trkpt lat="45.33178" lon="5.90456">
        <ele>903</ele>
        <time>2022-06-15T12:37:16Z</time>
      </trkpt>
      <trkpt lat="45.33237" lon="5.90487">
        <ele>904</ele>
        <time>2022-06-15T12:37:31Z</time>
      </trkpt>
      <trkpt lat="45.33276" lon="5.9051">
        <ele>907</ele>
        <time>2022-06-15T12:37:41Z</time>
      </trkpt>
      <trkpt lat="45.33308" lon="5.90526">
        <ele>911</ele>
        <time>2022-06-15T12:37:49Z</time>
      </trkpt>
      <trkpt lat="45.33338" lon="5.90536">
        <ele>915</ele>
        <time>2022-06-15T12:37:56Z</time>
      </trkpt>
      <trkpt lat="45.33389" lon="5.90543">
        <ele>919</ele>
        <time>2022-06-15T12:38:08Z</time>
      </trkpt>
      <trkpt lat="45.33431" lon="5.90582">
        <ele>920</ele>
        <time>2022-06-15T12:38:20Z</time>
      </trkpt>
      <trkpt lat="45.33444" lon="5.90585">
        <ele>921</ele>
        <time>2022-06-15T12:38:23Z</time>
      </trkpt>
      <trkpt lat="45.33479" lon="5.90579">
        <ele>927</ele>
        <time>2022-06-15T12:38:31Z</time>
      </trkpt>
      <trkpt lat="45.33516" lon="5.90566">
        <ele>931</ele>
        <time>2022-06-15T12:38:40Z</time>
      </trkpt>
      <trkpt lat="45.3353" lon="5.90555">
        <ele>933</ele>
        <time>2022-06-15T12:38:44Z</time>
      </trkpt>
      <trkpt lat="45.33554" lon="5.90531">
        <ele>937</ele>
        <time>2022-06-15T12:38:51Z</time>
      </trkpt>
      <trkpt lat="45.33561" lon="5.90527">
        <ele>937</ele>
        <time>2022-06-15T12:38:52Z</time>
      </trkpt>
      <trkpt lat="45.33576" lon="5.90524">
        <ele>939</ele>
        <time>2022-06-15T12:38:56Z</time>
      </trkpt>
      <trkpt lat="45.33584" lon="5.90515">
        <ele>940</ele>
        <time>2022-06-15T12:38:58Z</time>
      </trkpt>
      <trkpt lat="45.33599" lon="5.9048">
        <ele>945</ele>
        <time>2022-06-15T12:39:05Z</time>
      </trkpt>
      <trkpt lat="45.33611" lon="5.90461">
        <ele>948</ele>
        <time>2022-06-15T12:39:09Z</time>
      </trkpt>
      <trkpt lat="45.33624" lon="5.90448">
        <ele>950</ele>
        <time>2022-06-15T12:39:13Z</time>
      </trkpt>
      <trkpt lat="45.33636" lon="5.90445">
        <ele>952</ele>
        <time>2022-06-15T12:39:16Z</time>
      </trkpt>
      <trkpt lat="45.33644" lon="5.90451">
        <ele>951</ele>
        <time>2022-06-15T12:39:18Z</time>
      </trkpt>
      <trkpt lat="45.33648" lon="5.90466">
        <ele>950</ele>
        <time>2022-06-15T12:39:21Z</time>
      </trkpt>
      <trkpt lat="45.3365" lon="5.90505">
        <ele>945</ele>
        <time>2022-06-15T12:39:27Z</time>
      </trkpt>
      <trkpt lat="45.33653" lon="5.90522">
        <ele>944</ele>
        <time>2022-06-15T12:39:30Z</time>
      </trkpt>
      <trkpt lat="45.33659" lon="5.90532">
        <ele>943</ele>
        <time>2022-06-15T12:39:32Z</time>
      </trkpt>
      <trkpt lat="45.33667" lon="5.90541">
        <ele>943</ele>
        <time>2022-06-15T12:39:34Z</time>
      </trkpt>
      <trkpt lat="45.33689" lon="5.90556">
        <ele>945</ele>
        <time>2022-06-15T12:39:40Z</time>
      </trkpt>
      <trkpt lat="45.33725" lon="5.90568">
        <ele>948</ele>
        <time>2022-06-15T12:39:49Z</time>
      </trkpt>
      <trkpt lat="45.33744" lon="5.90567">
        <ele>950</ele>
        <time>2022-06-15T12:39:53Z</time>
      </trkpt>
      <trkpt lat="45.3378" lon="5.90577">
        <ele>952</ele>
        <time>2022-06-15T12:40:02Z</time>
      </trkpt>
      <trkpt lat="45.33822" lon="5.90598">
        <ele>951</ele>
        <time>2022-06-15T12:40:12Z</time>
      </trkpt>
      <trkpt lat="45.33835" lon="5.90602">
        <ele>950</ele>
        <time>2022-06-15T12:40:15Z</time>
      </trkpt>
      <trkpt lat="45.33868" lon="5.90608">
        <ele>949</ele>
        <time>2022-06-15T12:40:23Z</time>
      </trkpt>
      <trkpt lat="45.33898" lon="5.90596">
        <ele>951</ele>
        <time>2022-06-15T12:40:30Z</time>
      </trkpt>
      <trkpt lat="45.33903" lon="5.90599">
        <ele>951</ele>
        <time>2022-06-15T12:40:31Z</time>
      </trkpt>
      <trkpt lat="45.33921" lon="5.90614">
        <ele>947</ele>
        <time>2022-06-15T12:40:36Z</time>
      </trkpt>
      <trkpt lat="45.33924" lon="5.90618">
        <ele>946</ele>
        <time>2022-06-15T12:40:37Z</time>
      </trkpt>
      <trkpt lat="45.33966" lon="5.90626">
        <ele>946</ele>
        <time>2022-06-15T12:40:47Z</time>
      </trkpt>
      <trkpt lat="45.34002" lon="5.90613">
        <ele>950</ele>
        <time>2022-06-15T12:40:56Z</time>
      </trkpt>
      <trkpt lat="45.34018" lon="5.9063">
        <ele>951</ele>
        <time>2022-06-15T12:41:01Z</time>
      </trkpt>
      <trkpt lat="45.34023" lon="5.90651">
        <ele>950</ele>
        <time>2022-06-15T12:41:04Z</time>
      </trkpt>
      <trkpt lat="45.34031" lon="5.90715">
        <ele>948</ele>
        <time>2022-06-15T12:41:15Z</time>
      </trkpt>
      <trkpt lat="45.34038" lon="5.90731">
        <ele>949</ele>
        <time>2022-06-15T12:41:18Z</time>
      </trkpt>
      <trkpt lat="45.34035" lon="5.9074">
        <ele>948</ele>
        <time>2022-06-15T12:41:20Z</time>
      </trkpt>
      <trkpt lat="45.34029" lon="5.9075">
        <ele>946</ele>
        <time>2022-06-15T12:41:22Z</time>
      </trkpt>
      <trkpt lat="45.34027" lon="5.90758">
        <ele>945</ele>
        <time>2022-06-15T12:41:23Z</time>
      </trkpt>
      <trkpt lat="45.34024" lon="5.90776">
        <ele>943</ele>
        <time>2022-06-15T12:41:26Z</time>
      </trkpt>
      <trkpt lat="45.34023" lon="5.90787">
        <ele>942</ele>
        <time>2022-06-15T12:41:28Z</time>
      </trkpt>
      <trkpt lat="45.34026" lon="5.90795">
        <ele>942</ele>
        <time>2022-06-15T12:41:29Z</time>
      </trkpt>
      <trkpt lat="45.34048" lon="5.90816">
        <ele>946</ele>
        <time>2022-06-15T12:41:36Z</time>
      </trkpt>
      <trkpt lat="45.34085" lon="5.90844">
        <ele>949</ele>
        <time>2022-06-15T12:41:45Z</time>
      </trkpt>
      <trkpt lat="45.34096" lon="5.90851">
        <ele>947</ele>
        <time>2022-06-15T12:41:48Z</time>
      </trkpt>
      <trkpt lat="45.341" lon="5.9085">
        <ele>947</ele>
        <time>2022-06-15T12:41:49Z</time>
      </trkpt>
      <trkpt lat="45.34105" lon="5.90855">
        <ele>946</ele>
        <time>2022-06-15T12:41:51Z</time>
      </trkpt>
      <trkpt lat="45.34115" lon="5.9086">
        <ele>945</ele>
        <time>2022-06-15T12:41:53Z</time>
      </trkpt>
      <trkpt lat="45.34126" lon="5.90859">
        <ele>945</ele>
        <time>2022-06-15T12:41:56Z</time>
      </trkpt>
      <trkpt lat="45.34137" lon="5.90852">
        <ele>946</ele>
        <time>2022-06-15T12:41:59Z</time>
      </trkpt>
      <trkpt lat="45.34158" lon="5.90832">
        <ele>949</ele>
        <time>2022-06-15T12:42:04Z</time>
      </trkpt>
      <trkpt lat="45.34175" lon="5.90813">
        <ele>952</ele>
        <time>2022-06-15T12:42:09Z</time>
      </trkpt>
      <trkpt lat="45.34185" lon="5.90797">
        <ele>956</ele>
        <time>2022-06-15T12:42:13Z</time>
      </trkpt>
      <trkpt lat="45.34193" lon="5.90794">
        <ele>957</ele>
        <time>2022-06-15T12:42:15Z</time>
      </trkpt>
      <trkpt lat="45.34201" lon="5.908">
        <ele>957</ele>
        <time>2022-06-15T12:42:17Z</time>
      </trkpt>
      <trkpt lat="45.34215" lon="5.90831">
        <ele>955</ele>
        <time>2022-06-15T12:42:23Z</time>
      </trkpt>
      <trkpt lat="45.3422" lon="5.90853">
        <ele>953</ele>
        <time>2022-06-15T12:42:27Z</time>
      </trkpt>
      <trkpt lat="45.34223" lon="5.90899">
        <ele>948</ele>
        <time>2022-06-15T12:42:34Z</time>
      </trkpt>
      <trkpt lat="45.3422" lon="5.90945">
        <ele>942</ele>
        <time>2022-06-15T12:42:42Z</time>
      </trkpt>
      <trkpt lat="45.34225" lon="5.90958">
        <ele>942</ele>
        <time>2022-06-15T12:42:44Z</time>
      </trkpt>
      <trkpt lat="45.34234" lon="5.90961">
        <ele>944</ele>
        <time>2022-06-15T12:42:47Z</time>
      </trkpt>
      <trkpt lat="45.34282" lon="5.90953">
        <ele>954</ele>
        <time>2022-06-15T12:42:58Z</time>
      </trkpt>
      <trkpt lat="45.34286" lon="5.90953">
        <ele>955</ele>
        <time>2022-06-15T12:42:59Z</time>
      </trkpt>
      <trkpt lat="45.34291" lon="5.90961">
        <ele>955</ele>
        <time>2022-06-15T12:43:01Z</time>
      </trkpt>
      <trkpt lat="45.34291" lon="5.90975">
        <ele>955</ele>
        <time>2022-06-15T12:43:03Z</time>
      </trkpt>
      <trkpt lat="45.34283" lon="5.91055">
        <ele>947</ele>
        <time>2022-06-15T12:43:16Z</time>
      </trkpt>
      <trkpt lat="45.34275" lon="5.91094">
        <ele>942</ele>
        <time>2022-06-15T12:43:23Z</time>
      </trkpt>
      <trkpt lat="45.34265" lon="5.91164">
        <ele>934</ele>
        <time>2022-06-15T12:43:35Z</time>
      </trkpt>
      <trkpt lat="45.34266" lon="5.91185">
        <ele>931</ele>
        <time>2022-06-15T12:43:38Z</time>
      </trkpt>
      <trkpt lat="45.34269" lon="5.91205">
        <ele>928</ele>
        <time>2022-06-15T12:43:41Z</time>
      </trkpt>
      <trkpt lat="45.34274" lon="5.91222">
        <ele>926</ele>
        <time>2022-06-15T12:43:44Z</time>
      </trkpt>
      <trkpt lat="45.34286" lon="5.91243">
        <ele>925</ele>
        <time>2022-06-15T12:43:49Z</time>
      </trkpt>
      <trkpt lat="45.34296" lon="5.91251">
        <ele>926</ele>
        <time>2022-06-15T12:43:52Z</time>
      </trkpt>
      <trkpt lat="45.34353" lon="5.91279">
        <ele>932</ele>
        <time>2022-06-15T12:44:06Z</time>
      </trkpt>
      <trkpt lat="45.34412" lon="5.913">
        <ele>936</ele>
        <time>2022-06-15T12:44:20Z</time>
      </trkpt>
      <trkpt lat="45.34432" lon="5.91312">
        <ele>939</ele>
        <time>2022-06-15T12:44:25Z</time>
      </trkpt>
      <trkpt lat="45.34438" lon="5.91319">
        <ele>939</ele>
        <time>2022-06-15T12:44:27Z</time>
      </trkpt>
      <trkpt lat="45.34444" lon="5.91342">
        <ele>939</ele>
        <time>2022-06-15T12:44:31Z</time>
      </trkpt>
      <trkpt lat="45.34449" lon="5.91351">
        <ele>939</ele>
        <time>2022-06-15T12:44:33Z</time>
      </trkpt>
      <trkpt lat="45.34475" lon="5.91376">
        <ele>942</ele>
        <time>2022-06-15T12:44:40Z</time>
      </trkpt>
      <trkpt lat="45.34494" lon="5.91386">
        <ele>944</ele>
        <time>2022-06-15T12:44:45Z</time>
      </trkpt>
      <trkpt lat="45.34509" lon="5.91398">
        <ele>945</ele>
        <time>2022-06-15T12:44:49Z</time>
      </trkpt>
      <trkpt lat="45.34511" lon="5.91405">
        <ele>945</ele>
        <time>2022-06-15T12:44:50Z</time>
      </trkpt>
      <trkpt lat="45.34511" lon="5.91414">
        <ele>944</ele>
        <time>2022-06-15T12:44:51Z</time>
      </trkpt>
      <trkpt lat="45.34504" lon="5.91429">
        <ele>945</ele>
        <time>2022-06-15T12:44:54Z</time>
      </trkpt>
      <trkpt lat="45.34436" lon="5.9145">
        <ele>938</ele>
        <time>2022-06-15T12:45:11Z</time>
      </trkpt>
      <trkpt lat="45.34403" lon="5.91492">
        <ele>940</ele>
        <time>2022-06-15T12:45:21Z</time>
      </trkpt>
      <trkpt lat="45.34374" lon="5.91526">
        <ele>945</ele>
        <time>2022-06-15T12:45:30Z</time>
      </trkpt>
      <trkpt lat="45.34366" lon="5.91535">
        <ele>946</ele>
        <time>2022-06-15T12:45:32Z</time>
      </trkpt>
      <trkpt lat="45.34362" lon="5.91544">
        <ele>948</ele>
        <time>2022-06-15T12:45:34Z</time>
      </trkpt>
      <trkpt lat="45.34359" lon="5.9156">
        <ele>951</ele>
        <time>2022-06-15T12:45:37Z</time>
      </trkpt>
      <trkpt lat="45.34359" lon="5.91575">
        <ele>955</ele>
        <time>2022-06-15T12:45:39Z</time>
      </trkpt>
      <trkpt lat="45.34364" lon="5.91613">
        <ele>963</ele>
        <time>2022-06-15T12:45:45Z</time>
      </trkpt>
      <trkpt lat="45.3437" lon="5.91625">
        <ele>966</ele>
        <time>2022-06-15T12:45:48Z</time>
      </trkpt>
      <trkpt lat="45.34376" lon="5.91628">
        <ele>967</ele>
        <time>2022-06-15T12:45:49Z</time>
      </trkpt>
      <trkpt lat="45.34399" lon="5.9163">
        <ele>969</ele>
        <time>2022-06-15T12:45:55Z</time>
      </trkpt>
      <trkpt lat="45.34407" lon="5.91636">
        <ele>971</ele>
        <time>2022-06-15T12:45:57Z</time>
      </trkpt>
      <trkpt lat="45.34422" lon="5.91657">
        <ele>975</ele>
        <time>2022-06-15T12:46:02Z</time>
      </trkpt>
      <trkpt lat="45.34427" lon="5.91669">
        <ele>977</ele>
        <time>2022-06-15T12:46:04Z</time>
      </trkpt>
      <trkpt lat="45.34465" lon="5.91711">
        <ele>983</ele>
        <time>2022-06-15T12:46:15Z</time>
      </trkpt>
      <trkpt lat="45.34506" lon="5.91742">
        <ele>987</ele>
        <time>2022-06-15T12:46:26Z</time>
      </trkpt>
      <trkpt lat="45.34528" lon="5.91752">
        <ele>989</ele>
        <time>2022-06-15T12:46:31Z</time>
      </trkpt>
      <trkpt lat="45.34546" lon="5.91765">
        <ele>992</ele>
        <time>2022-06-15T12:46:36Z</time>
      </trkpt>
      <trkpt lat="45.34556" lon="5.91769">
        <ele>993</ele>
        <time>2022-06-15T12:46:39Z</time>
      </trkpt>
      <trkpt lat="45.34564" lon="5.91768">
        <ele>993</ele>
        <time>2022-06-15T12:46:40Z</time>
      </trkpt>
      <trkpt lat="45.34587" lon="5.91776">
        <ele>995</ele>
        <time>2022-06-15T12:46:46Z</time>
      </trkpt>
      <trkpt lat="45.34595" lon="5.91781">
        <ele>997</ele>
        <time>2022-06-15T12:46:48Z</time>
      </trkpt>
      <trkpt lat="45.3462" lon="5.91786">
        <ele>999</ele>
        <time>2022-06-15T12:46:54Z</time>
      </trkpt>
      <trkpt lat="45.34641" lon="5.91786">
        <ele>1001</ele>
        <time>2022-06-15T12:46:59Z</time>
      </trkpt>
      <trkpt lat="45.34674" lon="5.91775">
        <ele>1002</ele>
        <time>2022-06-15T12:47:07Z</time>
      </trkpt>
      <trkpt lat="45.34687" lon="5.91765">
        <ele>1003</ele>
        <time>2022-06-15T12:47:10Z</time>
      </trkpt>
      <trkpt lat="45.34691" lon="5.9176">
        <ele>1003</ele>
        <time>2022-06-15T12:47:11Z</time>
      </trkpt>
      <trkpt lat="45.347" lon="5.91744">
        <ele>1002</ele>
        <time>2022-06-15T12:47:15Z</time>
      </trkpt>
      <trkpt lat="45.3471" lon="5.91718">
        <ele>1002</ele>
        <time>2022-06-15T12:47:20Z</time>
      </trkpt>
      <trkpt lat="45.34718" lon="5.91706">
        <ele>1002</ele>
        <time>2022-06-15T12:47:22Z</time>
      </trkpt>
      <trkpt lat="45.34728" lon="5.91698">
        <ele>1003</ele>
        <time>2022-06-15T12:47:25Z</time>
      </trkpt>
      <trkpt lat="45.34735" lon="5.91698">
        <ele>1004</ele>
        <time>2022-06-15T12:47:27Z</time>
      </trkpt>
      <trkpt lat="45.34743" lon="5.91699">
        <ele>1006</ele>
        <time>2022-06-15T12:47:29Z</time>
      </trkpt>
      <trkpt lat="45.34794" lon="5.91728">
        <ele>1016</ele>
        <time>2022-06-15T12:47:41Z</time>
      </trkpt>
      <trkpt lat="45.34819" lon="5.91736">
        <ele>1020</ele>
        <time>2022-06-15T12:47:47Z</time>
      </trkpt>
      <trkpt lat="45.34848" lon="5.91753">
        <ele>1026</ele>
        <time>2022-06-15T12:47:55Z</time>
      </trkpt>
      <trkpt lat="45.34864" lon="5.91757">
        <ele>1027</ele>
        <time>2022-06-15T12:47:58Z</time>
      </trkpt>
      <trkpt lat="45.34894" lon="5.91769">
        <ele>1031</ele>
        <time>2022-06-15T12:48:06Z</time>
      </trkpt>
      <trkpt lat="45.34922" lon="5.91785">
        <ele>1033</ele>
        <time>2022-06-15T12:48:13Z</time>
      </trkpt>
      <trkpt lat="45.34945" lon="5.91794">
        <ele>1034</ele>
        <time>2022-06-15T12:48:18Z</time>
      </trkpt>
      <trkpt lat="45.34956" lon="5.91797">
        <ele>1034</ele>
        <time>2022-06-15T12:48:21Z</time>
      </trkpt>
      <trkpt lat="45.34962" lon="5.91793">
        <ele>1034</ele>
        <time>2022-06-15T12:48:23Z</time>
      </trkpt>
      <trkpt lat="45.35004" lon="5.91783">
        <ele>1032</ele>
        <time>2022-06-15T12:48:32Z</time>
      </trkpt>
      <trkpt lat="45.35085" lon="5.91793">
        <ele>1031</ele>
        <time>2022-06-15T12:48:51Z</time>
      </trkpt>
      <trkpt lat="45.35133" lon="5.91779">
        <ele>1030</ele>
        <time>2022-06-15T12:49:03Z</time>
      </trkpt>
      <trkpt lat="45.35209" lon="5.91749">
        <ele>1034</ele>
        <time>2022-06-15T12:49:21Z</time>
      </trkpt>
      <trkpt lat="45.35215" lon="5.91749">
        <ele>1035</ele>
        <time>2022-06-15T12:49:23Z</time>
      </trkpt>
      <trkpt lat="45.35223" lon="5.91756">
        <ele>1036</ele>
        <time>2022-06-15T12:49:25Z</time>
      </trkpt>
      <trkpt lat="45.35266" lon="5.9181">
        <ele>1044</ele>
        <time>2022-06-15T12:49:38Z</time>
      </trkpt>
      <trkpt lat="45.35295" lon="5.91855">
        <ele>1050</ele>
        <time>2022-06-15T12:49:48Z</time>
      </trkpt>
      <trkpt lat="45.35302" lon="5.91862">
        <ele>1052</ele>
        <time>2022-06-15T12:49:50Z</time>
      </trkpt>
      <trkpt lat="45.3531" lon="5.91866">
        <ele>1053</ele>
        <time>2022-06-15T12:49:52Z</time>
      </trkpt>
      <trkpt lat="45.35321" lon="5.91867">
        <ele>1054</ele>
        <time>2022-06-15T12:49:55Z</time>
      </trkpt>
      <trkpt lat="45.35331" lon="5.91865">
        <ele>1056</ele>
        <time>2022-06-15T12:49:57Z</time>
      </trkpt>
      <trkpt lat="45.35337" lon="5.91859">
        <ele>1056</ele>
        <time>2022-06-15T12:49:59Z</time>
      </trkpt>
      <trkpt lat="45.35344" lon="5.91847">
        <ele>1056</ele>
        <time>2022-06-15T12:50:02Z</time>
      </trkpt>
      <trkpt lat="45.35348" lon="5.91834">
        <ele>1056</ele>
        <time>2022-06-15T12:50:04Z</time>
      </trkpt>
      <trkpt lat="45.35357" lon="5.91798">
        <ele>1054</ele>
        <time>2022-06-15T12:50:10Z</time>
      </trkpt>
      <trkpt lat="45.35365" lon="5.91806">
        <ele>1055</ele>
        <time>2022-06-15T12:50:12Z</time>
      </trkpt>
      <trkpt lat="45.35388" lon="5.9182">
        <ele>1057</ele>
        <time>2022-06-15T12:50:18Z</time>
      </trkpt>
      <trkpt lat="45.35405" lon="5.91827">
        <ele>1058</ele>
        <time>2022-06-15T12:50:22Z</time>
      </trkpt>
      <trkpt lat="45.3546" lon="5.91828">
        <ele>1065</ele>
        <time>2022-06-15T12:50:35Z</time>
      </trkpt>
      <trkpt lat="45.35488" lon="5.9184">
        <ele>1069</ele>
        <time>2022-06-15T12:50:42Z</time>
      </trkpt>
      <trkpt lat="45.35536" lon="5.91867">
        <ele>1073</ele>
        <time>2022-06-15T12:50:54Z</time>
      </trkpt>
      <trkpt lat="45.35565" lon="5.91877">
        <ele>1074</ele>
        <time>2022-06-15T12:51:01Z</time>
      </trkpt>
      <trkpt lat="45.35581" lon="5.9188">
        <ele>1075</ele>
        <time>2022-06-15T12:51:05Z</time>
      </trkpt>
      <trkpt lat="45.35582" lon="5.9188">
        <ele>1075</ele>
        <time>2022-06-15T12:51:05Z</time>
      </trkpt>
      <trkpt lat="45.35593" lon="5.91867">
        <ele>1076</ele>
        <time>2022-06-15T12:51:08Z</time>
      </trkpt>
      <trkpt lat="45.35617" lon="5.91855">
        <ele>1075</ele>
        <time>2022-06-15T12:51:14Z</time>
      </trkpt>
      <trkpt lat="45.3563" lon="5.91845">
        <ele>1074</ele>
        <time>2022-06-15T12:51:18Z</time>
      </trkpt>
      <trkpt lat="45.35633" lon="5.91855">
        <ele>1074</ele>
        <time>2022-06-15T12:51:20Z</time>
      </trkpt>
      <trkpt lat="45.35661" lon="5.91836">
        <ele>1071</ele>
        <time>2022-06-15T12:51:27Z</time>
      </trkpt>
      <trkpt lat="45.35666" lon="5.91834">
        <ele>1070</ele>
        <time>2022-06-15T12:51:28Z</time>
      </trkpt>
      <trkpt lat="45.35629" lon="5.91772">
        <ele>1082</ele>
        <time>2022-06-15T12:51:41Z</time>
      </trkpt>
      <trkpt lat="45.35606" lon="5.91756">
        <ele>1088</ele>
        <time>2022-06-15T12:51:47Z</time>
      </trkpt>
      <trkpt lat="45.35586" lon="5.91755">
        <ele>1092</ele>
        <time>2022-06-15T12:51:52Z</time>
      </trkpt>
      <trkpt lat="45.35562" lon="5.9174">
        <ele>1091</ele>
        <time>2022-06-15T12:51:58Z</time>
      </trkpt>
      <trkpt lat="45.35555" lon="5.9173">
        <ele>1091</ele>
        <time>2022-06-15T12:52:01Z</time>
      </trkpt>
      <trkpt lat="45.35553" lon="5.91718">
        <ele>1092</ele>
        <time>2022-06-15T12:52:03Z</time>
      </trkpt>
      <trkpt lat="45.35565" lon="5.91699">
        <ele>1098</ele>
        <time>2022-06-15T12:52:07Z</time>
      </trkpt>
      <trkpt lat="45.35585" lon="5.91693">
        <ele>1103</ele>
        <time>2022-06-15T12:52:11Z</time>
      </trkpt>
      <trkpt lat="45.3559" lon="5.91684">
        <ele>1104</ele>
        <time>2022-06-15T12:52:13Z</time>
      </trkpt>
      <trkpt lat="45.35593" lon="5.91654">
        <ele>1108</ele>
        <time>2022-06-15T12:52:18Z</time>
      </trkpt>
      <trkpt lat="45.35592" lon="5.91629">
        <ele>1110</ele>
        <time>2022-06-15T12:52:22Z</time>
      </trkpt>
      <trkpt lat="45.35606" lon="5.91611">
        <ele>1111</ele>
        <time>2022-06-15T12:52:27Z</time>
      </trkpt>
      <trkpt lat="45.35609" lon="5.91594">
        <ele>1112</ele>
        <time>2022-06-15T12:52:30Z</time>
      </trkpt>
      <trkpt lat="45.35598" lon="5.9155">
        <ele>1119</ele>
        <time>2022-06-15T12:52:37Z</time>
      </trkpt>
      <trkpt lat="45.356" lon="5.91533">
        <ele>1121</ele>
        <time>2022-06-15T12:52:40Z</time>
      </trkpt>
      <trkpt lat="45.35608" lon="5.9153">
        <ele>1122</ele>
        <time>2022-06-15T12:52:42Z</time>
      </trkpt>
      <trkpt lat="45.35613" lon="5.91547">
        <ele>1120</ele>
        <time>2022-06-15T12:52:45Z</time>
      </trkpt>
      <trkpt lat="45.35614" lon="5.91565">
        <ele>1116</ele>
        <time>2022-06-15T12:52:48Z</time>
      </trkpt>
      <trkpt lat="45.35618" lon="5.91575">
        <ele>1114</ele>
        <time>2022-06-15T12:52:50Z</time>
      </trkpt>
      <trkpt lat="45.35627" lon="5.9157">
        <ele>1115</ele>
        <time>2022-06-15T12:52:52Z</time>
      </trkpt>
      <trkpt lat="45.35629" lon="5.91548">
        <ele>1120</ele>
        <time>2022-06-15T12:52:56Z</time>
      </trkpt>
      <trkpt lat="45.35623" lon="5.9153">
        <ele>1123</ele>
        <time>2022-06-15T12:52:59Z</time>
      </trkpt>
      <trkpt lat="45.35621" lon="5.91501">
        <ele>1129</ele>
        <time>2022-06-15T12:53:04Z</time>
      </trkpt>
      <trkpt lat="45.35624" lon="5.91495">
        <ele>1130</ele>
        <time>2022-06-15T12:53:05Z</time>
      </trkpt>
      <trkpt lat="45.35618" lon="5.91475">
        <ele>1134</ele>
        <time>2022-06-15T12:53:09Z</time>
      </trkpt>
      <trkpt lat="45.35614" lon="5.91472">
        <ele>1134</ele>
        <time>2022-06-15T12:53:10Z</time>
      </trkpt>
      <trkpt lat="45.35594" lon="5.91482">
        <ele>1130</ele>
        <time>2022-06-15T12:53:15Z</time>
      </trkpt>
      <trkpt lat="45.35579" lon="5.9148">
        <ele>1128</ele>
        <time>2022-06-15T12:53:18Z</time>
      </trkpt>
      <trkpt lat="45.35572" lon="5.91474">
        <ele>1128</ele>
        <time>2022-06-15T12:53:20Z</time>
      </trkpt>
      <trkpt lat="45.35573" lon="5.91464">
        <ele>1130</ele>
        <time>2022-06-15T12:53:22Z</time>
      </trkpt>
      <trkpt lat="45.3557" lon="5.91454">
        <ele>1132</ele>
        <time>2022-06-15T12:53:24Z</time>
      </trkpt>
      <trkpt lat="45.35537" lon="5.91404">
        <ele>1133</ele>
        <time>2022-06-15T12:53:35Z</time>
      </trkpt>
      <trkpt lat="45.35526" lon="5.91379">
        <ele>1134</ele>
        <time>2022-06-15T12:53:40Z</time>
      </trkpt>
      <trkpt lat="45.35499" lon="5.91294">
        <ele>1139</ele>
        <time>2022-06-15T12:53:55Z</time>
      </trkpt>
      <trkpt lat="45.35482" lon="5.91231">
        <ele>1146</ele>
        <time>2022-06-15T12:54:06Z</time>
      </trkpt>
      <trkpt lat="45.35481" lon="5.91205">
        <ele>1151</ele>
        <time>2022-06-15T12:54:10Z</time>
      </trkpt>
      <trkpt lat="45.35478" lon="5.91182">
        <ele>1155</ele>
        <time>2022-06-15T12:54:14Z</time>
      </trkpt>
      <trkpt lat="45.35471" lon="5.91159">
        <ele>1158</ele>
        <time>2022-06-15T12:54:18Z</time>
      </trkpt>
      <trkpt lat="45.35453" lon="5.91111">
        <ele>1162</ele>
        <time>2022-06-15T12:54:27Z</time>
      </trkpt>
      <trkpt lat="45.35439" lon="5.91056">
        <ele>1170</ele>
        <time>2022-06-15T12:54:37Z</time>
      </trkpt>
      <trkpt lat="45.35425" lon="5.91022">
        <ele>1175</ele>
        <time>2022-06-15T12:54:43Z</time>
      </trkpt>
      <trkpt lat="45.35413" lon="5.91008">
        <ele>1177</ele>
        <time>2022-06-15T12:54:47Z</time>
      </trkpt>
      <trkpt lat="45.35397" lon="5.90994">
        <ele>1180</ele>
        <time>2022-06-15T12:54:51Z</time>
      </trkpt>
      <trkpt lat="45.35334" lon="5.90954">
        <ele>1189</ele>
        <time>2022-06-15T12:55:07Z</time>
      </trkpt>
      <trkpt lat="45.35314" lon="5.90949">
        <ele>1192</ele>
        <time>2022-06-15T12:55:12Z</time>
      </trkpt>
      <trkpt lat="45.35293" lon="5.9095">
        <ele>1192</ele>
        <time>2022-06-15T12:55:17Z</time>
      </trkpt>
      <trkpt lat="45.35258" lon="5.9096">
        <ele>1189</ele>
        <time>2022-06-15T12:55:25Z</time>
      </trkpt>
      <trkpt lat="45.35249" lon="5.90958">
        <ele>1189</ele>
        <time>2022-06-15T12:55:28Z</time>
      </trkpt>
      <trkpt lat="45.35228" lon="5.90944">
        <ele>1189</ele>
        <time>2022-06-15T12:55:33Z</time>
      </trkpt>
      <trkpt lat="45.35207" lon="5.90919">
        <ele>1191</ele>
        <time>2022-06-15T12:55:39Z</time>
      </trkpt>
      <trkpt lat="45.35168" lon="5.90876">
        <ele>1193</ele>
        <time>2022-06-15T12:55:51Z</time>
      </trkpt>
      <trkpt lat="45.3513" lon="5.90784">
        <ele>1205</ele>
        <time>2022-06-15T12:56:08Z</time>
      </trkpt>
      <trkpt lat="45.35124" lon="5.90754">
        <ele>1211</ele>
        <time>2022-06-15T12:56:14Z</time>
      </trkpt>
      <trkpt lat="45.35121" lon="5.9071">
        <ele>1214</ele>
        <time>2022-06-15T12:56:21Z</time>
      </trkpt>
      <trkpt lat="45.35124" lon="5.90668">
        <ele>1220</ele>
        <time>2022-06-15T12:56:28Z</time>
      </trkpt>
      <trkpt lat="45.3513" lon="5.90628">
        <ele>1230</ele>
        <time>2022-06-15T12:56:34Z</time>
      </trkpt>
      <trkpt lat="45.35131" lon="5.90588">
        <ele>1237</ele>
        <time>2022-06-15T12:56:41Z</time>
      </trkpt>
      <trkpt lat="45.35119" lon="5.90525">
        <ele>1239</ele>
        <time>2022-06-15T12:56:52Z</time>
      </trkpt>
      <trkpt lat="45.35107" lon="5.90483">
        <ele>1237</ele>
        <time>2022-06-15T12:56:59Z</time>
      </trkpt>
      <trkpt lat="45.35096" lon="5.90431">
        <ele>1239</ele>
        <time>2022-06-15T12:57:08Z</time>
      </trkpt>
      <trkpt lat="45.35087" lon="5.90362">
        <ele>1243</ele>
        <time>2022-06-15T12:57:20Z</time>
      </trkpt>
      <trkpt lat="45.35084" lon="5.90206">
        <ele>1258</ele>
        <time>2022-06-15T12:57:45Z</time>
      </trkpt>
      <trkpt lat="45.35078" lon="5.9018">
        <ele>1260</ele>
        <time>2022-06-15T12:57:50Z</time>
      </trkpt>
      <trkpt lat="45.35064" lon="5.90151">
        <ele>1258</ele>
        <time>2022-06-15T12:57:55Z</time>
      </trkpt>
      <trkpt lat="45.35054" lon="5.90127">
        <ele>1257</ele>
        <time>2022-06-15T12:58:00Z</time>
      </trkpt>
      <trkpt lat="45.35047" lon="5.90097">
        <ele>1257</ele>
        <time>2022-06-15T12:58:05Z</time>
      </trkpt>
      <trkpt lat="45.35038" lon="5.90042">
        <ele>1261</ele>
        <time>2022-06-15T12:58:14Z</time>
      </trkpt>
      <trkpt lat="45.35021" lon="5.89983">
        <ele>1264</ele>
        <time>2022-06-15T12:58:25Z</time>
      </trkpt>
      <trkpt lat="45.35008" lon="5.89957">
        <ele>1265</ele>
        <time>2022-06-15T12:58:30Z</time>
      </trkpt>
      <trkpt lat="45.3499" lon="5.89924">
        <ele>1266</ele>
        <time>2022-06-15T12:58:37Z</time>
      </trkpt>
      <trkpt lat="45.34972" lon="5.89906">
        <ele>1263</ele>
        <time>2022-06-15T12:58:42Z</time>
      </trkpt>
      <trkpt lat="45.34959" lon="5.89897">
        <ele>1260</ele>
        <time>2022-06-15T12:58:46Z</time>
      </trkpt>
      <trkpt lat="45.3495" lon="5.89879">
        <ele>1260</ele>
        <time>2022-06-15T12:58:49Z</time>
      </trkpt>
      <trkpt lat="45.34945" lon="5.89861">
        <ele>1262</ele>
        <time>2022-06-15T12:58:52Z</time>
      </trkpt>
      <trkpt lat="45.34944" lon="5.89843">
        <ele>1266</ele>
        <time>2022-06-15T12:58:55Z</time>
      </trkpt>
      <trkpt lat="45.34942" lon="5.89829">
        <ele>1268</ele>
        <time>2022-06-15T12:58:58Z</time>
      </trkpt>
      <trkpt lat="45.34939" lon="5.8982">
        <ele>1269</ele>
        <time>2022-06-15T12:58:59Z</time>
      </trkpt>
      <trkpt lat="45.34935" lon="5.89815">
        <ele>1268</ele>
        <time>2022-06-15T12:59:01Z</time>
      </trkpt>
      <trkpt lat="45.34914" lon="5.89809">
        <ele>1263</ele>
        <time>2022-06-15T12:59:06Z</time>
      </trkpt>
      <trkpt lat="45.34903" lon="5.89803">
        <ele>1261</ele>
        <time>2022-06-15T12:59:08Z</time>
      </trkpt>
      <trkpt lat="45.34895" lon="5.89789">
        <ele>1262</ele>
        <time>2022-06-15T12:59:11Z</time>
      </trkpt>
      <trkpt lat="45.34887" lon="5.89747">
        <ele>1269</ele>
        <time>2022-06-15T12:59:18Z</time>
      </trkpt>
      <trkpt lat="45.34876" lon="5.89718">
        <ele>1272</ele>
        <time>2022-06-15T12:59:24Z</time>
      </trkpt>
      <trkpt lat="45.34854" lon="5.89695">
        <ele>1270</ele>
        <time>2022-06-15T12:59:30Z</time>
      </trkpt>
      <trkpt lat="45.34834" lon="5.8968">
        <ele>1266</ele>
        <time>2022-06-15T12:59:35Z</time>
      </trkpt>
      <trkpt lat="45.34823" lon="5.89661">
        <ele>1266</ele>
        <time>2022-06-15T12:59:40Z</time>
      </trkpt>
      <trkpt lat="45.34818" lon="5.89644">
        <ele>1267</ele>
        <time>2022-06-15T12:59:43Z</time>
      </trkpt>
      <trkpt lat="45.34814" lon="5.89623">
        <ele>1270</ele>
        <time>2022-06-15T12:59:46Z</time>
      </trkpt>
      <trkpt lat="45.34806" lon="5.89608">
        <ele>1270</ele>
        <time>2022-06-15T12:59:49Z</time>
      </trkpt>
      <trkpt lat="45.34799" lon="5.89598">
        <ele>1270</ele>
        <time>2022-06-15T12:59:52Z</time>
      </trkpt>
      <trkpt lat="45.34783" lon="5.89592">
        <ele>1266</ele>
        <time>2022-06-15T12:59:55Z</time>
      </trkpt>
      <trkpt lat="45.34764" lon="5.89571">
        <ele>1264</ele>
        <time>2022-06-15T13:00:01Z</time>
      </trkpt>
      <trkpt lat="45.34753" lon="5.89545">
        <ele>1265</ele>
        <time>2022-06-15T13:00:06Z</time>
      </trkpt>
      <trkpt lat="45.34741" lon="5.89513">
        <ele>1267</ele>
        <time>2022-06-15T13:00:12Z</time>
      </trkpt>
      <trkpt lat="45.34721" lon="5.89469">
        <ele>1266</ele>
        <time>2022-06-15T13:00:21Z</time>
      </trkpt>
      <trkpt lat="45.34717" lon="5.89441">
        <ele>1268</ele>
        <time>2022-06-15T13:00:25Z</time>
      </trkpt>
      <trkpt lat="45.34713" lon="5.89412">
        <ele>1270</ele>
        <time>2022-06-15T13:00:30Z</time>
      </trkpt>
      <trkpt lat="45.34717" lon="5.89441">
        <ele>1268</ele>
        <time>2022-06-15T13:00:35Z</time>
      </trkpt>
      <trkpt lat="45.34696" lon="5.89392">
        <ele>1270</ele>
        <time>2022-06-15T13:00:44Z</time>
      </trkpt>
      <trkpt lat="45.34665" lon="5.89358">
        <ele>1272</ele>
        <time>2022-06-15T13:00:53Z</time>
      </trkpt>
      <trkpt lat="45.346" lon="5.89324">
        <ele>1275</ele>
        <time>2022-06-15T13:01:10Z</time>
      </trkpt>
      <trkpt lat="45.34561" lon="5.89315">
        <ele>1279</ele>
        <time>2022-06-15T13:01:19Z</time>
      </trkpt>
      <trkpt lat="45.34505" lon="5.89313">
        <ele>1283</ele>
        <time>2022-06-15T13:01:32Z</time>
      </trkpt>
      <trkpt lat="45.34493" lon="5.89314">
        <ele>1283</ele>
        <time>2022-06-15T13:01:35Z</time>
      </trkpt>
      <trkpt lat="45.34484" lon="5.89321">
        <ele>1282</ele>
        <time>2022-06-15T13:01:37Z</time>
      </trkpt>
      <trkpt lat="45.34475" lon="5.89332">
        <ele>1279</ele>
        <time>2022-06-15T13:01:40Z</time>
      </trkpt>
      <trkpt lat="45.34459" lon="5.89342">
        <ele>1277</ele>
        <time>2022-06-15T13:01:44Z</time>
      </trkpt>
      <trkpt lat="45.34447" lon="5.89347">
        <ele>1277</ele>
        <time>2022-06-15T13:01:47Z</time>
      </trkpt>
      <trkpt lat="45.34427" lon="5.89351">
        <ele>1277</ele>
        <time>2022-06-15T13:01:52Z</time>
      </trkpt>
      <trkpt lat="45.34409" lon="5.89352">
        <ele>1275</ele>
        <time>2022-06-15T13:01:56Z</time>
      </trkpt>
      <trkpt lat="45.3437" lon="5.89342">
        <ele>1267</ele>
        <time>2022-06-15T13:02:05Z</time>
      </trkpt>
      <trkpt lat="45.34358" lon="5.89333">
        <ele>1266</ele>
        <time>2022-06-15T13:02:08Z</time>
      </trkpt>
      <trkpt lat="45.34353" lon="5.89325">
        <ele>1266</ele>
        <time>2022-06-15T13:02:10Z</time>
      </trkpt>
      <trkpt lat="45.34351" lon="5.89316">
        <ele>1267</ele>
        <time>2022-06-15T13:02:12Z</time>
      </trkpt>
      <trkpt lat="45.34352" lon="5.89306">
        <ele>1269</ele>
        <time>2022-06-15T13:02:13Z</time>
      </trkpt>
      <trkpt lat="45.34359" lon="5.89284">
        <ele>1275</ele>
        <time>2022-06-15T13:02:17Z</time>
      </trkpt>
      <trkpt lat="45.34364" lon="5.89264">
        <ele>1280</ele>
        <time>2022-06-15T13:02:21Z</time>
      </trkpt>
      <trkpt lat="45.34365" lon="5.89246">
        <ele>1285</ele>
        <time>2022-06-15T13:02:24Z</time>
      </trkpt>
      <trkpt lat="45.34363" lon="5.89233">
        <ele>1289</ele>
        <time>2022-06-15T13:02:26Z</time>
      </trkpt>
      <trkpt lat="45.34357" lon="5.89224">
        <ele>1292</ele>
        <time>2022-06-15T13:02:28Z</time>
      </trkpt>
      <trkpt lat="45.34338" lon="5.89209">
        <ele>1294</ele>
        <time>2022-06-15T13:02:33Z</time>
      </trkpt>
      <trkpt lat="45.34322" lon="5.89201">
        <ele>1297</ele>
        <time>2022-06-15T13:02:37Z</time>
      </trkpt>
      <trkpt lat="45.34306" lon="5.89197">
        <ele>1300</ele>
        <time>2022-06-15T13:02:41Z</time>
      </trkpt>
      <trkpt lat="45.34289" lon="5.89202">
        <ele>1298</ele>
        <time>2022-06-15T13:02:45Z</time>
      </trkpt>
      <trkpt lat="45.34267" lon="5.89216">
        <ele>1292</ele>
        <time>2022-06-15T13:02:50Z</time>
      </trkpt>
      <trkpt lat="45.34234" lon="5.89254">
        <ele>1274</ele>
        <time>2022-06-15T13:03:00Z</time>
      </trkpt>
      <trkpt lat="45.34224" lon="5.89263">
        <ele>1271</ele>
        <time>2022-06-15T13:03:03Z</time>
      </trkpt>
      <trkpt lat="45.34207" lon="5.89266">
        <ele>1270</ele>
        <time>2022-06-15T13:03:07Z</time>
      </trkpt>
      <trkpt lat="45.34194" lon="5.89261">
        <ele>1271</ele>
        <time>2022-06-15T13:03:10Z</time>
      </trkpt>
      <trkpt lat="45.34178" lon="5.89252">
        <ele>1274</ele>
        <time>2022-06-15T13:03:14Z</time>
      </trkpt>
      <trkpt lat="45.3416" lon="5.89228">
        <ele>1279</ele>
        <time>2022-06-15T13:03:20Z</time>
      </trkpt>
      <trkpt lat="45.34144" lon="5.89198">
        <ele>1286</ele>
        <time>2022-06-15T13:03:26Z</time>
      </trkpt>
      <trkpt lat="45.34128" lon="5.89175">
        <ele>1291</ele>
        <time>2022-06-15T13:03:31Z</time>
      </trkpt>
      <trkpt lat="45.34115" lon="5.8916">
        <ele>1295</ele>
        <time>2022-06-15T13:03:35Z</time>
      </trkpt>
      <trkpt lat="45.34101" lon="5.89159">
        <ele>1294</ele>
        <time>2022-06-15T13:03:39Z</time>
      </trkpt>
      <trkpt lat="45.34062" lon="5.89178">
        <ele>1290</ele>
        <time>2022-06-15T13:03:48Z</time>
      </trkpt>
      <trkpt lat="45.34053" lon="5.89185">
        <ele>1289</ele>
        <time>2022-06-15T13:03:51Z</time>
      </trkpt>
      <trkpt lat="45.34041" lon="5.89203">
        <ele>1285</ele>
        <time>2022-06-15T13:03:55Z</time>
      </trkpt>
      <trkpt lat="45.34002" lon="5.89245">
        <ele>1278</ele>
        <time>2022-06-15T13:04:06Z</time>
      </trkpt>
      <trkpt lat="45.33991" lon="5.89253">
        <ele>1275</ele>
        <time>2022-06-15T13:04:09Z</time>
      </trkpt>
      <trkpt lat="45.33982" lon="5.89257">
        <ele>1273</ele>
        <time>2022-06-15T13:04:11Z</time>
      </trkpt>
      <trkpt lat="45.33972" lon="5.89258">
        <ele>1272</ele>
        <time>2022-06-15T13:04:14Z</time>
      </trkpt>
      <trkpt lat="45.33933" lon="5.89237">
        <ele>1278</ele>
        <time>2022-06-15T13:04:23Z</time>
      </trkpt>
      <trkpt lat="45.33871" lon="5.89218">
        <ele>1276</ele>
        <time>2022-06-15T13:04:38Z</time>
      </trkpt>
      <trkpt lat="45.33844" lon="5.89201">
        <ele>1278</ele>
        <time>2022-06-15T13:04:45Z</time>
      </trkpt>
      <trkpt lat="45.3374" lon="5.89159">
        <ele>1269</ele>
        <time>2022-06-15T13:05:10Z</time>
      </trkpt>
      <trkpt lat="45.33698" lon="5.8914">
        <ele>1268</ele>
        <time>2022-06-15T13:05:21Z</time>
      </trkpt>
      <trkpt lat="45.33663" lon="5.89115">
        <ele>1270</ele>
        <time>2022-06-15T13:05:30Z</time>
      </trkpt>
      <trkpt lat="45.33626" lon="5.891">
        <ele>1267</ele>
        <time>2022-06-15T13:05:39Z</time>
      </trkpt>
      <trkpt lat="45.33567" lon="5.89079">
        <ele>1261</ele>
        <time>2022-06-15T13:05:53Z</time>
      </trkpt>
      <trkpt lat="45.33524" lon="5.89059">
        <ele>1260</ele>
        <time>2022-06-15T13:06:04Z</time>
      </trkpt>
      <trkpt lat="45.33493" lon="5.89043">
        <ele>1259</ele>
        <time>2022-06-15T13:06:11Z</time>
      </trkpt>
      <trkpt lat="45.33419" lon="5.88984">
        <ele>1259</ele>
        <time>2022-06-15T13:06:31Z</time>
      </trkpt>
      <trkpt lat="45.33385" lon="5.8897">
        <ele>1256</ele>
        <time>2022-06-15T13:06:39Z</time>
      </trkpt>
      <trkpt lat="45.33334" lon="5.88944">
        <ele>1251</ele>
        <time>2022-06-15T13:06:52Z</time>
      </trkpt>
      <trkpt lat="45.33309" lon="5.88925">
        <ele>1256</ele>
        <time>2022-06-15T13:06:59Z</time>
      </trkpt>
      <trkpt lat="45.33293" lon="5.88916">
        <ele>1259</ele>
        <time>2022-06-15T13:07:03Z</time>
      </trkpt>
      <trkpt lat="45.3328" lon="5.88914">
        <ele>1259</ele>
        <time>2022-06-15T13:07:06Z</time>
      </trkpt>
      <trkpt lat="45.33266" lon="5.8892">
        <ele>1257</ele>
        <time>2022-06-15T13:07:09Z</time>
      </trkpt>
      <trkpt lat="45.33253" lon="5.88934">
        <ele>1252</ele>
        <time>2022-06-15T13:07:13Z</time>
      </trkpt>
      <trkpt lat="45.33233" lon="5.88942">
        <ele>1247</ele>
        <time>2022-06-15T13:07:18Z</time>
      </trkpt>
      <trkpt lat="45.33206" lon="5.88947">
        <ele>1244</ele>
        <time>2022-06-15T13:07:24Z</time>
      </trkpt>
      <trkpt lat="45.33193" lon="5.88945">
        <ele>1244</ele>
        <time>2022-06-15T13:07:27Z</time>
      </trkpt>
      <trkpt lat="45.33179" lon="5.88944">
        <ele>1243</ele>
        <time>2022-06-15T13:07:30Z</time>
      </trkpt>
      <trkpt lat="45.33152" lon="5.88933">
        <ele>1243</ele>
        <time>2022-06-15T13:07:37Z</time>
      </trkpt>
      <trkpt lat="45.3313" lon="5.8892">
        <ele>1242</ele>
        <time>2022-06-15T13:07:43Z</time>
      </trkpt>
      <trkpt lat="45.33118" lon="5.88912">
        <ele>1241</ele>
        <time>2022-06-15T13:07:46Z</time>
      </trkpt>
      <trkpt lat="45.33101" lon="5.88896">
        <ele>1241</ele>
        <time>2022-06-15T13:07:50Z</time>
      </trkpt>
      <trkpt lat="45.33084" lon="5.88876">
        <ele>1240</ele>
        <time>2022-06-15T13:07:56Z</time>
      </trkpt>
      <trkpt lat="45.33068" lon="5.88844">
        <ele>1237</ele>
        <time>2022-06-15T13:08:02Z</time>
      </trkpt>
      <trkpt lat="45.33062" lon="5.88798">
        <ele>1236</ele>
        <time>2022-06-15T13:08:10Z</time>
      </trkpt>
      <trkpt lat="45.3306" lon="5.88769">
        <ele>1236</ele>
        <time>2022-06-15T13:08:14Z</time>
      </trkpt>
      <trkpt lat="45.33062" lon="5.88742">
        <ele>1238</ele>
        <time>2022-06-15T13:08:19Z</time>
      </trkpt>
      <trkpt lat="45.33062" lon="5.88717">
        <ele>1239</ele>
        <time>2022-06-15T13:08:23Z</time>
      </trkpt>
      <trkpt lat="45.33057" lon="5.88686">
        <ele>1237</ele>
        <time>2022-06-15T13:08:28Z</time>
      </trkpt>
      <trkpt lat="45.33043" lon="5.88659">
        <ele>1233</ele>
        <time>2022-06-15T13:08:34Z</time>
      </trkpt>
      <trkpt lat="45.3305" lon="5.88615">
        <ele>1242</ele>
        <time>2022-06-15T13:08:41Z</time>
      </trkpt>
      <trkpt lat="45.33047" lon="5.88606">
        <ele>1243</ele>
        <time>2022-06-15T13:08:43Z</time>
      </trkpt>
      <trkpt lat="45.33039" lon="5.88603">
        <ele>1240</ele>
        <time>2022-06-15T13:08:45Z</time>
      </trkpt>
      <trkpt lat="45.33001" lon="5.88617">
        <ele>1223</ele>
        <time>2022-06-15T13:08:54Z</time>
      </trkpt>
      <trkpt lat="45.32985" lon="5.88612">
        <ele>1219</ele>
        <time>2022-06-15T13:08:58Z</time>
      </trkpt>
      <trkpt lat="45.3297" lon="5.88587">
        <ele>1219</ele>
        <time>2022-06-15T13:09:03Z</time>
      </trkpt>
      <trkpt lat="45.3296" lon="5.88575">
        <ele>1218</ele>
        <time>2022-06-15T13:09:06Z</time>
      </trkpt>
      <trkpt lat="45.32948" lon="5.88565">
        <ele>1215</ele>
        <time>2022-06-15T13:09:09Z</time>
      </trkpt>
      <trkpt lat="45.32947" lon="5.88559">
        <ele>1216</ele>
        <time>2022-06-15T13:09:10Z</time>
      </trkpt>
      <trkpt lat="45.32952" lon="5.88544">
        <ele>1220</ele>
        <time>2022-06-15T13:09:13Z</time>
      </trkpt>
      <trkpt lat="45.32958" lon="5.88531">
        <ele>1224</ele>
        <time>2022-06-15T13:09:16Z</time>
      </trkpt>
      <trkpt lat="45.32962" lon="5.88518">
        <ele>1229</ele>
        <time>2022-06-15T13:09:18Z</time>
      </trkpt>
      <trkpt lat="45.32962" lon="5.88505">
        <ele>1231</ele>
        <time>2022-06-15T13:09:20Z</time>
      </trkpt>
      <trkpt lat="45.32959" lon="5.88497">
        <ele>1231</ele>
        <time>2022-06-15T13:09:22Z</time>
      </trkpt>
      <trkpt lat="45.32935" lon="5.88483">
        <ele>1223</ele>
        <time>2022-06-15T13:09:28Z</time>
      </trkpt>
      <trkpt lat="45.32931" lon="5.88466">
        <ele>1225</ele>
        <time>2022-06-15T13:09:31Z</time>
      </trkpt>
      <trkpt lat="45.3293" lon="5.88443">
        <ele>1231</ele>
        <time>2022-06-15T13:09:34Z</time>
      </trkpt>
      <trkpt lat="45.32926" lon="5.88422">
        <ele>1234</ele>
        <time>2022-06-15T13:09:38Z</time>
      </trkpt>
      <trkpt lat="45.32911" lon="5.884">
        <ele>1234</ele>
        <time>2022-06-15T13:09:43Z</time>
      </trkpt>
      <trkpt lat="45.32903" lon="5.88382">
        <ele>1238</ele>
        <time>2022-06-15T13:09:47Z</time>
      </trkpt>
      <trkpt lat="45.32888" lon="5.88364">
        <ele>1242</ele>
        <time>2022-06-15T13:09:51Z</time>
      </trkpt>
      <trkpt lat="45.32875" lon="5.88358">
        <ele>1243</ele>
        <time>2022-06-15T13:09:54Z</time>
      </trkpt>
      <trkpt lat="45.3287" lon="5.88365">
        <ele>1241</ele>
        <time>2022-06-15T13:09:56Z</time>
      </trkpt>
      <trkpt lat="45.32861" lon="5.88363">
        <ele>1241</ele>
        <time>2022-06-15T13:09:58Z</time>
      </trkpt>
      <trkpt lat="45.32873" lon="5.88385">
        <ele>1235</ele>
        <time>2022-06-15T13:10:03Z</time>
      </trkpt>
      <trkpt lat="45.32861" lon="5.88363">
        <ele>1241</ele>
        <time>2022-06-15T13:10:07Z</time>
      </trkpt>
      <trkpt lat="45.32855" lon="5.88368">
        <ele>1239</ele>
        <time>2022-06-15T13:10:09Z</time>
      </trkpt>
      <trkpt lat="45.32851" lon="5.88375">
        <ele>1237</ele>
        <time>2022-06-15T13:10:10Z</time>
      </trkpt>
      <trkpt lat="45.32849" lon="5.88385">
        <ele>1233</ele>
        <time>2022-06-15T13:10:12Z</time>
      </trkpt>
      <trkpt lat="45.32849" lon="5.88405">
        <ele>1226</ele>
        <time>2022-06-15T13:10:15Z</time>
      </trkpt>
      <trkpt lat="45.32839" lon="5.88428">
        <ele>1217</ele>
        <time>2022-06-15T13:10:20Z</time>
      </trkpt>
      <trkpt lat="45.32828" lon="5.8844">
        <ele>1211</ele>
        <time>2022-06-15T13:10:23Z</time>
      </trkpt>
      <trkpt lat="45.32816" lon="5.88443">
        <ele>1208</ele>
        <time>2022-06-15T13:10:26Z</time>
      </trkpt>
      <trkpt lat="45.32807" lon="5.88441">
        <ele>1207</ele>
        <time>2022-06-15T13:10:28Z</time>
      </trkpt>
      <trkpt lat="45.32766" lon="5.88414">
        <ele>1211</ele>
        <time>2022-06-15T13:10:38Z</time>
      </trkpt>
      <trkpt lat="45.32731" lon="5.884">
        <ele>1212</ele>
        <time>2022-06-15T13:10:47Z</time>
      </trkpt>
      <trkpt lat="45.32723" lon="5.88394">
        <ele>1214</ele>
        <time>2022-06-15T13:10:49Z</time>
      </trkpt>
      <trkpt lat="45.32713" lon="5.8838">
        <ele>1218</ele>
        <time>2022-06-15T13:10:52Z</time>
      </trkpt>
      <trkpt lat="45.32705" lon="5.88364">
        <ele>1223</ele>
        <time>2022-06-15T13:10:56Z</time>
      </trkpt>
      <trkpt lat="45.3269" lon="5.88311">
        <ele>1239</ele>
        <time>2022-06-15T13:11:05Z</time>
      </trkpt>
      <trkpt lat="45.32684" lon="5.88304">
        <ele>1240</ele>
        <time>2022-06-15T13:11:07Z</time>
      </trkpt>
      <trkpt lat="45.32675" lon="5.88305">
        <ele>1239</ele>
        <time>2022-06-15T13:11:09Z</time>
      </trkpt>
      <trkpt lat="45.3267" lon="5.8831">
        <ele>1236</ele>
        <time>2022-06-15T13:11:10Z</time>
      </trkpt>
      <trkpt lat="45.32663" lon="5.88323">
        <ele>1232</ele>
        <time>2022-06-15T13:11:13Z</time>
      </trkpt>
      <trkpt lat="45.32654" lon="5.88363">
        <ele>1220</ele>
        <time>2022-06-15T13:11:20Z</time>
      </trkpt>
      <trkpt lat="45.32651" lon="5.88368">
        <ele>1219</ele>
        <time>2022-06-15T13:11:21Z</time>
      </trkpt>
      <trkpt lat="45.32646" lon="5.88371">
        <ele>1218</ele>
        <time>2022-06-15T13:11:22Z</time>
      </trkpt>
      <trkpt lat="45.32606" lon="5.88366">
        <ele>1225</ele>
        <time>2022-06-15T13:11:32Z</time>
      </trkpt>
      <trkpt lat="45.32587" lon="5.88372">
        <ele>1226</ele>
        <time>2022-06-15T13:11:36Z</time>
      </trkpt>
      <trkpt lat="45.32563" lon="5.88386">
        <ele>1229</ele>
        <time>2022-06-15T13:11:42Z</time>
      </trkpt>
      <trkpt lat="45.32558" lon="5.88394">
        <ele>1228</ele>
        <time>2022-06-15T13:11:44Z</time>
      </trkpt>
      <trkpt lat="45.32531" lon="5.88461">
        <ele>1220</ele>
        <time>2022-06-15T13:11:57Z</time>
      </trkpt>
      <trkpt lat="45.32473" lon="5.88593">
        <ele>1196</ele>
        <time>2022-06-15T13:12:22Z</time>
      </trkpt>
      <trkpt lat="45.32454" lon="5.88615">
        <ele>1190</ele>
        <time>2022-06-15T13:12:28Z</time>
      </trkpt>
      <trkpt lat="45.32453" lon="5.88616">
        <ele>1190</ele>
        <time>2022-06-15T13:12:28Z</time>
      </trkpt>
      <trkpt lat="45.3245" lon="5.88607">
        <ele>1192</ele>
        <time>2022-06-15T13:12:30Z</time>
      </trkpt>
      <trkpt lat="45.32439" lon="5.88603">
        <ele>1194</ele>
        <time>2022-06-15T13:12:33Z</time>
      </trkpt>
      <trkpt lat="45.32417" lon="5.88586">
        <ele>1199</ele>
        <time>2022-06-15T13:12:38Z</time>
      </trkpt>
      <trkpt lat="45.32397" lon="5.88565">
        <ele>1200</ele>
        <time>2022-06-15T13:12:44Z</time>
      </trkpt>
      <trkpt lat="45.32385" lon="5.88545">
        <ele>1202</ele>
        <time>2022-06-15T13:12:48Z</time>
      </trkpt>
      <trkpt lat="45.32362" lon="5.88501">
        <ele>1207</ele>
        <time>2022-06-15T13:12:57Z</time>
      </trkpt>
      <trkpt lat="45.32329" lon="5.88458">
        <ele>1205</ele>
        <time>2022-06-15T13:13:08Z</time>
      </trkpt>
      <trkpt lat="45.32324" lon="5.88461">
        <ele>1203</ele>
        <time>2022-06-15T13:13:09Z</time>
      </trkpt>
      <trkpt lat="45.32316" lon="5.8846">
        <ele>1200</ele>
        <time>2022-06-15T13:13:11Z</time>
      </trkpt>
      <trkpt lat="45.32304" lon="5.88448">
        <ele>1197</ele>
        <time>2022-06-15T13:13:15Z</time>
      </trkpt>
      <trkpt lat="45.32297" lon="5.88436">
        <ele>1196</ele>
        <time>2022-06-15T13:13:17Z</time>
      </trkpt>
      <trkpt lat="45.32292" lon="5.88417">
        <ele>1196</ele>
        <time>2022-06-15T13:13:20Z</time>
      </trkpt>
      <trkpt lat="45.32294" lon="5.88364">
        <ele>1195</ele>
        <time>2022-06-15T13:13:29Z</time>
      </trkpt>
      <trkpt lat="45.32292" lon="5.88281">
        <ele>1189</ele>
        <time>2022-06-15T13:13:43Z</time>
      </trkpt>
      <trkpt lat="45.32295" lon="5.88257">
        <ele>1189</ele>
        <time>2022-06-15T13:13:47Z</time>
      </trkpt>
      <trkpt lat="45.32296" lon="5.88224">
        <ele>1188</ele>
        <time>2022-06-15T13:13:52Z</time>
      </trkpt>
      <trkpt lat="45.3229" lon="5.882">
        <ele>1184</ele>
        <time>2022-06-15T13:13:56Z</time>
      </trkpt>
      <trkpt lat="45.32283" lon="5.88177">
        <ele>1180</ele>
        <time>2022-06-15T13:14:00Z</time>
      </trkpt>
      <trkpt lat="45.32265" lon="5.8815">
        <ele>1175</ele>
        <time>2022-06-15T13:14:07Z</time>
      </trkpt>
      <trkpt lat="45.32227" lon="5.88126">
        <ele>1165</ele>
        <time>2022-06-15T13:14:16Z</time>
      </trkpt>
      <trkpt lat="45.32218" lon="5.88126">
        <ele>1162</ele>
        <time>2022-06-15T13:14:18Z</time>
      </trkpt>
      <trkpt lat="45.32188" lon="5.88102">
        <ele>1156</ele>
        <time>2022-06-15T13:14:26Z</time>
      </trkpt>
      <trkpt lat="45.32138" lon="5.88056">
        <ele>1149</ele>
        <time>2022-06-15T13:14:40Z</time>
      </trkpt>
      <trkpt lat="45.32116" lon="5.88014">
        <ele>1153</ele>
        <time>2022-06-15T13:14:49Z</time>
      </trkpt>
      <trkpt lat="45.32112" lon="5.88011">
        <ele>1153</ele>
        <time>2022-06-15T13:14:50Z</time>
      </trkpt>
      <trkpt lat="45.32102" lon="5.88013">
        <ele>1152</ele>
        <time>2022-06-15T13:14:52Z</time>
      </trkpt>
      <trkpt lat="45.32084" lon="5.88023">
        <ele>1147</ele>
        <time>2022-06-15T13:14:57Z</time>
      </trkpt>
      <trkpt lat="45.32073" lon="5.88026">
        <ele>1144</ele>
        <time>2022-06-15T13:14:59Z</time>
      </trkpt>
      <trkpt lat="45.32055" lon="5.88024">
        <ele>1141</ele>
        <time>2022-06-15T13:15:04Z</time>
      </trkpt>
      <trkpt lat="45.32039" lon="5.88013">
        <ele>1140</ele>
        <time>2022-06-15T13:15:08Z</time>
      </trkpt>
      <trkpt lat="45.3203" lon="5.88">
        <ele>1142</ele>
        <time>2022-06-15T13:15:11Z</time>
      </trkpt>
      <trkpt lat="45.3203" lon="5.87971">
        <ele>1150</ele>
        <time>2022-06-15T13:15:16Z</time>
      </trkpt>
      <trkpt lat="45.32023" lon="5.8796">
        <ele>1152</ele>
        <time>2022-06-15T13:15:18Z</time>
      </trkpt>
      <trkpt lat="45.32016" lon="5.87954">
        <ele>1153</ele>
        <time>2022-06-15T13:15:20Z</time>
      </trkpt>
      <trkpt lat="45.31967" lon="5.87928">
        <ele>1151</ele>
        <time>2022-06-15T13:15:32Z</time>
      </trkpt>
      <trkpt lat="45.31903" lon="5.87907">
        <ele>1144</ele>
        <time>2022-06-15T13:15:48Z</time>
      </trkpt>
      <trkpt lat="45.3187" lon="5.87899">
        <ele>1139</ele>
        <time>2022-06-15T13:15:55Z</time>
      </trkpt>
      <trkpt lat="45.31848" lon="5.87887">
        <ele>1137</ele>
        <time>2022-06-15T13:16:01Z</time>
      </trkpt>
      <trkpt lat="45.31838" lon="5.87873">
        <ele>1138</ele>
        <time>2022-06-15T13:16:04Z</time>
      </trkpt>
      <trkpt lat="45.3183" lon="5.87822">
        <ele>1149</ele>
        <time>2022-06-15T13:16:13Z</time>
      </trkpt>
      <trkpt lat="45.31827" lon="5.87814">
        <ele>1150</ele>
        <time>2022-06-15T13:16:14Z</time>
      </trkpt>
      <trkpt lat="45.31783" lon="5.87778">
        <ele>1160</ele>
        <time>2022-06-15T13:16:26Z</time>
      </trkpt>
      <trkpt lat="45.31778" lon="5.87776">
        <ele>1161</ele>
        <time>2022-06-15T13:16:27Z</time>
      </trkpt>
      <trkpt lat="45.31772" lon="5.87779">
        <ele>1160</ele>
        <time>2022-06-15T13:16:29Z</time>
      </trkpt>
      <trkpt lat="45.31755" lon="5.87804">
        <ele>1151</ele>
        <time>2022-06-15T13:16:34Z</time>
      </trkpt>
      <trkpt lat="45.3175" lon="5.87806">
        <ele>1150</ele>
        <time>2022-06-15T13:16:36Z</time>
      </trkpt>
      <trkpt lat="45.31746" lon="5.87808">
        <ele>1149</ele>
        <time>2022-06-15T13:16:37Z</time>
      </trkpt>
      <trkpt lat="45.31717" lon="5.878">
        <ele>1153</ele>
        <time>2022-06-15T13:16:44Z</time>
      </trkpt>
      <trkpt lat="45.31706" lon="5.87801">
        <ele>1152</ele>
        <time>2022-06-15T13:16:46Z</time>
      </trkpt>
      <trkpt lat="45.31695" lon="5.87805">
        <ele>1151</ele>
        <time>2022-06-15T13:16:49Z</time>
      </trkpt>
      <trkpt lat="45.31675" lon="5.87818">
        <ele>1147</ele>
        <time>2022-06-15T13:16:54Z</time>
      </trkpt>
      <trkpt lat="45.3166" lon="5.87819">
        <ele>1147</ele>
        <time>2022-06-15T13:16:57Z</time>
      </trkpt>
      <trkpt lat="45.31654" lon="5.87816">
        <ele>1147</ele>
        <time>2022-06-15T13:16:59Z</time>
      </trkpt>
      <trkpt lat="45.31628" lon="5.8778">
        <ele>1154</ele>
        <time>2022-06-15T13:17:07Z</time>
      </trkpt>
      <trkpt lat="45.31623" lon="5.87776">
        <ele>1154</ele>
        <time>2022-06-15T13:17:09Z</time>
      </trkpt>
      <trkpt lat="45.31591" lon="5.87774">
        <ele>1151</ele>
        <time>2022-06-15T13:17:16Z</time>
      </trkpt>
      <trkpt lat="45.31584" lon="5.87769">
        <ele>1151</ele>
        <time>2022-06-15T13:17:18Z</time>
      </trkpt>
      <trkpt lat="45.3157" lon="5.87748">
        <ele>1156</ele>
        <time>2022-06-15T13:17:23Z</time>
      </trkpt>
      <trkpt lat="45.31557" lon="5.87737">
        <ele>1159</ele>
        <time>2022-06-15T13:17:26Z</time>
      </trkpt>
      <trkpt lat="45.31539" lon="5.8773">
        <ele>1160</ele>
        <time>2022-06-15T13:17:31Z</time>
      </trkpt>
      <trkpt lat="45.31524" lon="5.8773">
        <ele>1159</ele>
        <time>2022-06-15T13:17:34Z</time>
      </trkpt>
      <trkpt lat="45.31479" lon="5.87742">
        <ele>1161</ele>
        <time>2022-06-15T13:17:45Z</time>
      </trkpt>
      <trkpt lat="45.31462" lon="5.87749">
        <ele>1164</ele>
        <time>2022-06-15T13:17:49Z</time>
      </trkpt>
      <trkpt lat="45.31445" lon="5.87778">
        <ele>1162</ele>
        <time>2022-06-15T13:17:55Z</time>
      </trkpt>
      <trkpt lat="45.31421" lon="5.87813">
        <ele>1161</ele>
        <time>2022-06-15T13:18:03Z</time>
      </trkpt>
      <trkpt lat="45.314" lon="5.87837">
        <ele>1158</ele>
        <time>2022-06-15T13:18:10Z</time>
      </trkpt>
      <trkpt lat="45.31387" lon="5.87847">
        <ele>1157</ele>
        <time>2022-06-15T13:18:13Z</time>
      </trkpt>
      <trkpt lat="45.31371" lon="5.8785">
        <ele>1158</ele>
        <time>2022-06-15T13:18:17Z</time>
      </trkpt>
      <trkpt lat="45.31355" lon="5.87845">
        <ele>1160</ele>
        <time>2022-06-15T13:18:21Z</time>
      </trkpt>
      <trkpt lat="45.31341" lon="5.87838">
        <ele>1162</ele>
        <time>2022-06-15T13:18:24Z</time>
      </trkpt>
      <trkpt lat="45.31294" lon="5.87805">
        <ele>1170</ele>
        <time>2022-06-15T13:18:36Z</time>
      </trkpt>
      <trkpt lat="45.31279" lon="5.87801">
        <ele>1171</ele>
        <time>2022-06-15T13:18:40Z</time>
      </trkpt>
      <trkpt lat="45.31247" lon="5.87805">
        <ele>1168</ele>
        <time>2022-06-15T13:18:47Z</time>
      </trkpt>
      <trkpt lat="45.31242" lon="5.87803">
        <ele>1168</ele>
        <time>2022-06-15T13:18:49Z</time>
      </trkpt>
      <trkpt lat="45.31138" lon="5.87732">
        <ele>1164</ele>
        <time>2022-06-15T13:19:15Z</time>
      </trkpt>
      <trkpt lat="45.31123" lon="5.87717">
        <ele>1162</ele>
        <time>2022-06-15T13:19:20Z</time>
      </trkpt>
      <trkpt lat="45.31112" lon="5.87702">
        <ele>1162</ele>
        <time>2022-06-15T13:19:23Z</time>
      </trkpt>
      <trkpt lat="45.31085" lon="5.87656">
        <ele>1163</ele>
        <time>2022-06-15T13:19:33Z</time>
      </trkpt>
      <trkpt lat="45.31055" lon="5.87622">
        <ele>1162</ele>
        <time>2022-06-15T13:19:42Z</time>
      </trkpt>
      <trkpt lat="45.31019" lon="5.87593">
        <ele>1159</ele>
        <time>2022-06-15T13:19:52Z</time>
      </trkpt>
      <trkpt lat="45.30942" lon="5.87525">
        <ele>1151</ele>
        <time>2022-06-15T13:20:13Z</time>
      </trkpt>
      <trkpt lat="45.30937" lon="5.87531">
        <ele>1149</ele>
        <time>2022-06-15T13:20:14Z</time>
      </trkpt>
      <trkpt lat="45.30936" lon="5.87535">
        <ele>1148</ele>
        <time>2022-06-15T13:20:15Z</time>
      </trkpt>
      <trkpt lat="45.30937" lon="5.87531">
        <ele>1149</ele>
        <time>2022-06-15T13:20:16Z</time>
      </trkpt>
      <trkpt lat="45.30942" lon="5.87525">
        <ele>1151</ele>
        <time>2022-06-15T13:20:17Z</time>
      </trkpt>
      <trkpt lat="45.30895" lon="5.87441">
        <ele>1158</ele>
        <time>2022-06-15T13:20:35Z</time>
      </trkpt>
      <trkpt lat="45.30868" lon="5.87398">
        <ele>1162</ele>
        <time>2022-06-15T13:20:45Z</time>
      </trkpt>
      <trkpt lat="45.30828" lon="5.87345">
        <ele>1168</ele>
        <time>2022-06-15T13:20:57Z</time>
      </trkpt>
      <trkpt lat="45.30756" lon="5.87257">
        <ele>1183</ele>
        <time>2022-06-15T13:21:19Z</time>
      </trkpt>
      <trkpt lat="45.30744" lon="5.87232">
        <ele>1188</ele>
        <time>2022-06-15T13:21:24Z</time>
      </trkpt>
      <trkpt lat="45.30481" lon="5.86816">
        <ele>1169</ele>
        <time>2022-06-15T13:22:56Z</time>
      </trkpt>
      <trkpt lat="45.30512" lon="5.86648">
        <ele>1180</ele>
        <time>2022-06-15T13:23:25Z</time>
      </trkpt>
      <trkpt lat="45.30453" lon="5.8683">
        <ele>1154</ele>
        <time>2022-06-15T13:23:58Z</time>
      </trkpt>
      <trkpt lat="45.30413" lon="5.86638">
        <ele>1150</ele>
        <time>2022-06-15T13:24:31Z</time>
      </trkpt>
      <trkpt lat="45.30416" lon="5.86846">
        <ele>1134</ele>
        <time>2022-06-15T13:25:05Z</time>
      </trkpt>
      <trkpt lat="45.30337" lon="5.8661">
        <ele>1145</ele>
        <time>2022-06-15T13:25:48Z</time>
      </trkpt>
      <trkpt lat="45.30386" lon="5.86921">
        <ele>1122</ele>
        <time>2022-06-15T13:26:40Z</time>
      </trkpt>
      <trkpt lat="45.30241" lon="5.86698">
        <ele>1119</ele>
        <time>2022-06-15T13:27:30Z</time>
      </trkpt>
      <trkpt lat="45.30316" lon="5.87007">
        <ele>1093</ele>
        <time>2022-06-15T13:28:24Z</time>
      </trkpt>
      <trkpt lat="45.30173" lon="5.86797">
        <ele>1083</ele>
        <time>2022-06-15T13:29:12Z</time>
      </trkpt>
      <trkpt lat="45.30211" lon="5.86968">
        <ele>1063</ele>
        <time>2022-06-15T13:29:41Z</time>
      </trkpt>
      <trkpt lat="45.30132" lon="5.86822">
        <ele>1065</ele>
        <time>2022-06-15T13:30:11Z</time>
      </trkpt>
      <trkpt lat="45.3015" lon="5.86983">
        <ele>1049</ele>
        <time>2022-06-15T13:30:38Z</time>
      </trkpt>
      <trkpt lat="45.30073" lon="5.86906">
        <ele>1030</ele>
        <time>2022-06-15T13:31:00Z</time>
      </trkpt>
      <trkpt lat="45.30058" lon="5.86893">
        <ele>1028</ele>
        <time>2022-06-15T13:31:04Z</time>
      </trkpt>
      <trkpt lat="45.30038" lon="5.86886">
        <ele>1023</ele>
        <time>2022-06-15T13:31:09Z</time>
      </trkpt>
      <trkpt lat="45.30015" lon="5.86888">
        <ele>1015</ele>
        <time>2022-06-15T13:31:14Z</time>
      </trkpt>
      <trkpt lat="45.29974" lon="5.86897">
        <ele>1004</ele>
        <time>2022-06-15T13:31:24Z</time>
      </trkpt>
      <trkpt lat="45.29966" lon="5.86896">
        <ele>1002</ele>
        <time>2022-06-15T13:31:26Z</time>
      </trkpt>
      <trkpt lat="45.29959" lon="5.86892">
        <ele>1000</ele>
        <time>2022-06-15T13:31:28Z</time>
      </trkpt>
      <trkpt lat="45.29954" lon="5.86884">
        <ele>1000</ele>
        <time>2022-06-15T13:31:30Z</time>
      </trkpt>
      <trkpt lat="45.29953" lon="5.8687">
        <ele>1000</ele>
        <time>2022-06-15T13:31:32Z</time>
      </trkpt>
      <trkpt lat="45.29956" lon="5.86856">
        <ele>1002</ele>
        <time>2022-06-15T13:31:34Z</time>
      </trkpt>
      <trkpt lat="45.29979" lon="5.86814">
        <ele>1010</ele>
        <time>2022-06-15T13:31:43Z</time>
      </trkpt>
      <trkpt lat="45.2999" lon="5.86789">
        <ele>1014</ele>
        <time>2022-06-15T13:31:48Z</time>
      </trkpt>
      <trkpt lat="45.29993" lon="5.86769">
        <ele>1016</ele>
        <time>2022-06-15T13:31:51Z</time>
      </trkpt>
      <trkpt lat="45.29993" lon="5.86756">
        <ele>1017</ele>
        <time>2022-06-15T13:31:53Z</time>
      </trkpt>
      <trkpt lat="45.29989" lon="5.86744">
        <ele>1018</ele>
        <time>2022-06-15T13:31:55Z</time>
      </trkpt>
      <trkpt lat="45.29983" lon="5.86736">
        <ele>1019</ele>
        <time>2022-06-15T13:31:57Z</time>
      </trkpt>
      <trkpt lat="45.29964" lon="5.86729">
        <ele>1017</ele>
        <time>2022-06-15T13:32:02Z</time>
      </trkpt>
      <trkpt lat="45.2993" lon="5.86721">
        <ele>1011</ele>
        <time>2022-06-15T13:32:10Z</time>
      </trkpt>
      <trkpt lat="45.29916" lon="5.86714">
        <ele>1011</ele>
        <time>2022-06-15T13:32:14Z</time>
      </trkpt>
      <trkpt lat="45.29897" lon="5.867">
        <ele>1013</ele>
        <time>2022-06-15T13:32:19Z</time>
      </trkpt>
      <trkpt lat="45.29818" lon="5.86665">
        <ele>1012</ele>
        <time>2022-06-15T13:32:38Z</time>
      </trkpt>
      <trkpt lat="45.29808" lon="5.86665">
        <ele>1010</ele>
        <time>2022-06-15T13:32:40Z</time>
      </trkpt>
      <trkpt lat="45.29781" lon="5.86674">
        <ele>1003</ele>
        <time>2022-06-15T13:32:47Z</time>
      </trkpt>
      <trkpt lat="45.29771" lon="5.8667">
        <ele>1003</ele>
        <time>2022-06-15T13:32:49Z</time>
      </trkpt>
      <trkpt lat="45.29754" lon="5.8665">
        <ele>1009</ele>
        <time>2022-06-15T13:32:54Z</time>
      </trkpt>
      <trkpt lat="45.29741" lon="5.86642">
        <ele>1010</ele>
        <time>2022-06-15T13:32:58Z</time>
      </trkpt>
      <trkpt lat="45.29696" lon="5.86639">
        <ele>1003</ele>
        <time>2022-06-15T13:33:08Z</time>
      </trkpt>
      <trkpt lat="45.29685" lon="5.86631">
        <ele>1003</ele>
        <time>2022-06-15T13:33:11Z</time>
      </trkpt>
      <trkpt lat="45.2967" lon="5.86613">
        <ele>1006</ele>
        <time>2022-06-15T13:33:16Z</time>
      </trkpt>
      <trkpt lat="45.29658" lon="5.86602">
        <ele>1006</ele>
        <time>2022-06-15T13:33:19Z</time>
      </trkpt>
      <trkpt lat="45.29642" lon="5.86593">
        <ele>1004</ele>
        <time>2022-06-15T13:33:23Z</time>
      </trkpt>
      <trkpt lat="45.2962" lon="5.86586">
        <ele>1001</ele>
        <time>2022-06-15T13:33:28Z</time>
      </trkpt>
      <trkpt lat="45.29612" lon="5.86579">
        <ele>1000</ele>
        <time>2022-06-15T13:33:30Z</time>
      </trkpt>
      <trkpt lat="45.29608" lon="5.86566">
        <ele>1001</ele>
        <time>2022-06-15T13:33:33Z</time>
      </trkpt>
      <trkpt lat="45.29607" lon="5.86547">
        <ele>1005</ele>
        <time>2022-06-15T13:33:36Z</time>
      </trkpt>
      <trkpt lat="45.29616" lon="5.86476">
        <ele>1021</ele>
        <time>2022-06-15T13:33:48Z</time>
      </trkpt>
      <trkpt lat="45.29614" lon="5.86463">
        <ele>1024</ele>
        <time>2022-06-15T13:33:50Z</time>
      </trkpt>
      <trkpt lat="45.29608" lon="5.86454">
        <ele>1026</ele>
        <time>2022-06-15T13:33:52Z</time>
      </trkpt>
      <trkpt lat="45.29594" lon="5.86446">
        <ele>1025</ele>
        <time>2022-06-15T13:33:55Z</time>
      </trkpt>
      <trkpt lat="45.29585" lon="5.86444">
        <ele>1024</ele>
        <time>2022-06-15T13:33:58Z</time>
      </trkpt>
      <trkpt lat="45.29542" lon="5.86452">
        <ele>1016</ele>
        <time>2022-06-15T13:34:08Z</time>
      </trkpt>
      <trkpt lat="45.29518" lon="5.86452">
        <ele>1012</ele>
        <time>2022-06-15T13:34:13Z</time>
      </trkpt>
      <trkpt lat="45.29508" lon="5.86438">
        <ele>1013</ele>
        <time>2022-06-15T13:34:17Z</time>
      </trkpt>
      <trkpt lat="45.29497" lon="5.86427">
        <ele>1013</ele>
        <time>2022-06-15T13:34:20Z</time>
      </trkpt>
      <trkpt lat="45.29446" lon="5.864">
        <ele>1010</ele>
        <time>2022-06-15T13:34:32Z</time>
      </trkpt>
      <trkpt lat="45.29428" lon="5.86386">
        <ele>1009</ele>
        <time>2022-06-15T13:34:37Z</time>
      </trkpt>
      <trkpt lat="45.29415" lon="5.86372">
        <ele>1008</ele>
        <time>2022-06-15T13:34:41Z</time>
      </trkpt>
      <trkpt lat="45.29407" lon="5.86358">
        <ele>1008</ele>
        <time>2022-06-15T13:34:44Z</time>
      </trkpt>
      <trkpt lat="45.29396" lon="5.86329">
        <ele>1009</ele>
        <time>2022-06-15T13:34:49Z</time>
      </trkpt>
      <trkpt lat="45.29387" lon="5.863">
        <ele>1010</ele>
        <time>2022-06-15T13:34:55Z</time>
      </trkpt>
      <trkpt lat="45.29381" lon="5.86274">
        <ele>1012</ele>
        <time>2022-06-15T13:34:59Z</time>
      </trkpt>
      <trkpt lat="45.29378" lon="5.86246">
        <ele>1014</ele>
        <time>2022-06-15T13:35:04Z</time>
      </trkpt>
      <trkpt lat="45.29364" lon="5.86232">
        <ele>1013</ele>
        <time>2022-06-15T13:35:08Z</time>
      </trkpt>
      <trkpt lat="45.29348" lon="5.8622">
        <ele>1012</ele>
        <time>2022-06-15T13:35:12Z</time>
      </trkpt>
      <trkpt lat="45.29343" lon="5.86197">
        <ele>1013</ele>
        <time>2022-06-15T13:35:16Z</time>
      </trkpt>
      <trkpt lat="45.29344" lon="5.8619">
        <ele>1013</ele>
        <time>2022-06-15T13:35:17Z</time>
      </trkpt>
      <trkpt lat="45.29348" lon="5.8619">
        <ele>1014</ele>
        <time>2022-06-15T13:35:18Z</time>
      </trkpt>
      <trkpt lat="45.29352" lon="5.86186">
        <ele>1015</ele>
        <time>2022-06-15T13:35:19Z</time>
      </trkpt>
      <trkpt lat="45.29352" lon="5.86177">
        <ele>1016</ele>
        <time>2022-06-15T13:35:21Z</time>
      </trkpt>
      <trkpt lat="45.29343" lon="5.86137">
        <ele>1017</ele>
        <time>2022-06-15T13:35:28Z</time>
      </trkpt>
      <trkpt lat="45.29343" lon="5.86106">
        <ele>1019</ele>
        <time>2022-06-15T13:35:33Z</time>
      </trkpt>
      <trkpt lat="45.29357" lon="5.8602">
        <ele>1027</ele>
        <time>2022-06-15T13:35:47Z</time>
      </trkpt>
      <trkpt lat="45.29355" lon="5.85987">
        <ele>1029</ele>
        <time>2022-06-15T13:35:53Z</time>
      </trkpt>
      <trkpt lat="45.29358" lon="5.85978">
        <ele>1031</ele>
        <time>2022-06-15T13:35:54Z</time>
      </trkpt>
      <trkpt lat="45.2936" lon="5.85976">
        <ele>1032</ele>
        <time>2022-06-15T13:35:55Z</time>
      </trkpt>
      <trkpt lat="45.2935" lon="5.85944">
        <ele>1033</ele>
        <time>2022-06-15T13:36:01Z</time>
      </trkpt>
      <trkpt lat="45.29333" lon="5.8591">
        <ele>1033</ele>
        <time>2022-06-15T13:36:07Z</time>
      </trkpt>
      <trkpt lat="45.29328" lon="5.85899">
        <ele>1032</ele>
        <time>2022-06-15T13:36:10Z</time>
      </trkpt>
      <trkpt lat="45.29327" lon="5.85881">
        <ele>1031</ele>
        <time>2022-06-15T13:36:12Z</time>
      </trkpt>
      <trkpt lat="45.29331" lon="5.85848">
        <ele>1032</ele>
        <time>2022-06-15T13:36:18Z</time>
      </trkpt>
      <trkpt lat="45.29348" lon="5.8577">
        <ele>1035</ele>
        <time>2022-06-15T13:36:31Z</time>
      </trkpt>
      <trkpt lat="45.29347" lon="5.85711">
        <ele>1035</ele>
        <time>2022-06-15T13:36:41Z</time>
      </trkpt>
      <trkpt lat="45.29349" lon="5.85708">
        <ele>1035</ele>
        <time>2022-06-15T13:36:42Z</time>
      </trkpt>
      <trkpt lat="45.29365" lon="5.85702">
        <ele>1039</ele>
        <time>2022-06-15T13:36:46Z</time>
      </trkpt>
      <trkpt lat="45.29369" lon="5.85698">
        <ele>1040</ele>
        <time>2022-06-15T13:36:47Z</time>
      </trkpt>
      <trkpt lat="45.29371" lon="5.85691">
        <ele>1040</ele>
        <time>2022-06-15T13:36:48Z</time>
      </trkpt>
      <trkpt lat="45.29366" lon="5.85667">
        <ele>1040</ele>
        <time>2022-06-15T13:36:52Z</time>
      </trkpt>
      <trkpt lat="45.29366" lon="5.85645">
        <ele>1040</ele>
        <time>2022-06-15T13:36:56Z</time>
      </trkpt>
      <trkpt lat="45.29368" lon="5.85627">
        <ele>1042</ele>
        <time>2022-06-15T13:36:59Z</time>
      </trkpt>
      <trkpt lat="45.29378" lon="5.85591">
        <ele>1045</ele>
        <time>2022-06-15T13:37:05Z</time>
      </trkpt>
      <trkpt lat="45.29376" lon="5.85476">
        <ele>1044</ele>
        <time>2022-06-15T13:37:24Z</time>
      </trkpt>
      <trkpt lat="45.29373" lon="5.85447">
        <ele>1043</ele>
        <time>2022-06-15T13:37:29Z</time>
      </trkpt>
      <trkpt lat="45.29376" lon="5.85395">
        <ele>1042</ele>
        <time>2022-06-15T13:37:37Z</time>
      </trkpt>
      <trkpt lat="45.2938" lon="5.85356">
        <ele>1042</ele>
        <time>2022-06-15T13:37:44Z</time>
      </trkpt>
      <trkpt lat="45.29387" lon="5.85337">
        <ele>1043</ele>
        <time>2022-06-15T13:37:47Z</time>
      </trkpt>
      <trkpt lat="45.29399" lon="5.85317">
        <ele>1041</ele>
        <time>2022-06-15T13:37:52Z</time>
      </trkpt>
      <trkpt lat="45.29407" lon="5.85306">
        <ele>1041</ele>
        <time>2022-06-15T13:37:54Z</time>
      </trkpt>
      <trkpt lat="45.29416" lon="5.85298">
        <ele>1041</ele>
        <time>2022-06-15T13:37:57Z</time>
      </trkpt>
      <trkpt lat="45.2944" lon="5.85283">
        <ele>1046</ele>
        <time>2022-06-15T13:38:03Z</time>
      </trkpt>
      <trkpt lat="45.29458" lon="5.85277">
        <ele>1051</ele>
        <time>2022-06-15T13:38:07Z</time>
      </trkpt>
      <trkpt lat="45.29462" lon="5.85273">
        <ele>1052</ele>
        <time>2022-06-15T13:38:08Z</time>
      </trkpt>
      <trkpt lat="45.29468" lon="5.85236">
        <ele>1046</ele>
        <time>2022-06-15T13:38:15Z</time>
      </trkpt>
      <trkpt lat="45.29471" lon="5.85228">
        <ele>1045</ele>
        <time>2022-06-15T13:38:16Z</time>
      </trkpt>
      <trkpt lat="45.29483" lon="5.85214">
        <ele>1046</ele>
        <time>2022-06-15T13:38:20Z</time>
      </trkpt>
      <trkpt lat="45.2949" lon="5.85208">
        <ele>1046</ele>
        <time>2022-06-15T13:38:22Z</time>
      </trkpt>
      <trkpt lat="45.29525" lon="5.85185">
        <ele>1050</ele>
        <time>2022-06-15T13:38:31Z</time>
      </trkpt>
      <trkpt lat="45.29564" lon="5.85136">
        <ele>1052</ele>
        <time>2022-06-15T13:38:43Z</time>
      </trkpt>
      <trkpt lat="45.2958" lon="5.85122">
        <ele>1054</ele>
        <time>2022-06-15T13:38:47Z</time>
      </trkpt>
      <trkpt lat="45.29623" lon="5.85108">
        <ele>1062</ele>
        <time>2022-06-15T13:38:57Z</time>
      </trkpt>
      <trkpt lat="45.29645" lon="5.85092">
        <ele>1063</ele>
        <time>2022-06-15T13:39:03Z</time>
      </trkpt>
      <trkpt lat="45.29653" lon="5.85084">
        <ele>1062</ele>
        <time>2022-06-15T13:39:06Z</time>
      </trkpt>
      <trkpt lat="45.29655" lon="5.85079">
        <ele>1063</ele>
        <time>2022-06-15T13:39:06Z</time>
      </trkpt>
      <trkpt lat="45.29653" lon="5.85072">
        <ele>1065</ele>
        <time>2022-06-15T13:39:08Z</time>
      </trkpt>
      <trkpt lat="45.29644" lon="5.85067">
        <ele>1064</ele>
        <time>2022-06-15T13:39:10Z</time>
      </trkpt>
      <trkpt lat="45.29622" lon="5.8506">
        <ele>1063</ele>
        <time>2022-06-15T13:39:15Z</time>
      </trkpt>
      <trkpt lat="45.29613" lon="5.85055">
        <ele>1064</ele>
        <time>2022-06-15T13:39:17Z</time>
      </trkpt>
      <trkpt lat="45.29596" lon="5.8504">
        <ele>1066</ele>
        <time>2022-06-15T13:39:22Z</time>
      </trkpt>
      <trkpt lat="45.29592" lon="5.85034">
        <ele>1068</ele>
        <time>2022-06-15T13:39:24Z</time>
      </trkpt>
      <trkpt lat="45.29592" lon="5.85026">
        <ele>1070</ele>
        <time>2022-06-15T13:39:25Z</time>
      </trkpt>
      <trkpt lat="45.29594" lon="5.8502">
        <ele>1072</ele>
        <time>2022-06-15T13:39:26Z</time>
      </trkpt>
      <trkpt lat="45.29599" lon="5.85016">
        <ele>1074</ele>
        <time>2022-06-15T13:39:27Z</time>
      </trkpt>
      <trkpt lat="45.29617" lon="5.85014">
        <ele>1076</ele>
        <time>2022-06-15T13:39:31Z</time>
      </trkpt>
      <trkpt lat="45.29637" lon="5.85013">
        <ele>1077</ele>
        <time>2022-06-15T13:39:36Z</time>
      </trkpt>
      <trkpt lat="45.29642" lon="5.85011">
        <ele>1078</ele>
        <time>2022-06-15T13:39:37Z</time>
      </trkpt>
      <trkpt lat="45.29643" lon="5.85006">
        <ele>1079</ele>
        <time>2022-06-15T13:39:38Z</time>
      </trkpt>
      <trkpt lat="45.29643" lon="5.8499">
        <ele>1085</ele>
        <time>2022-06-15T13:39:41Z</time>
      </trkpt>
      <trkpt lat="45.29638" lon="5.84982">
        <ele>1089</ele>
        <time>2022-06-15T13:39:43Z</time>
      </trkpt>
      <trkpt lat="45.29619" lon="5.84968">
        <ele>1095</ele>
        <time>2022-06-15T13:39:48Z</time>
      </trkpt>
      <trkpt lat="45.29583" lon="5.84967">
        <ele>1094</ele>
        <time>2022-06-15T13:39:56Z</time>
      </trkpt>
      <trkpt lat="45.29567" lon="5.84952">
        <ele>1100</ele>
        <time>2022-06-15T13:40:00Z</time>
      </trkpt>
      <trkpt lat="45.29518" lon="5.84936">
        <ele>1103</ele>
        <time>2022-06-15T13:40:12Z</time>
      </trkpt>
      <trkpt lat="45.29516" lon="5.84933">
        <ele>1104</ele>
        <time>2022-06-15T13:40:13Z</time>
      </trkpt>
      <trkpt lat="45.29515" lon="5.8491">
        <ele>1112</ele>
        <time>2022-06-15T13:40:17Z</time>
      </trkpt>
      <trkpt lat="45.29516" lon="5.84903">
        <ele>1113</ele>
        <time>2022-06-15T13:40:18Z</time>
      </trkpt>
      <trkpt lat="45.29521" lon="5.84893">
        <ele>1116</ele>
        <time>2022-06-15T13:40:20Z</time>
      </trkpt>
      <trkpt lat="45.29521" lon="5.84866">
        <ele>1121</ele>
        <time>2022-06-15T13:40:24Z</time>
      </trkpt>
      <trkpt lat="45.2952" lon="5.84849">
        <ele>1124</ele>
        <time>2022-06-15T13:40:27Z</time>
      </trkpt>
      <trkpt lat="45.29564" lon="5.84867">
        <ele>1129</ele>
        <time>2022-06-15T13:40:38Z</time>
      </trkpt>
      <trkpt lat="45.29596" lon="5.84858">
        <ele>1137</ele>
        <time>2022-06-15T13:40:45Z</time>
      </trkpt>
      <trkpt lat="45.2962" lon="5.84838">
        <ele>1147</ele>
        <time>2022-06-15T13:40:52Z</time>
      </trkpt>
      <trkpt lat="45.29658" lon="5.84817">
        <ele>1158</ele>
        <time>2022-06-15T13:41:01Z</time>
      </trkpt>
      <trkpt lat="45.29662" lon="5.84807">
        <ele>1161</ele>
        <time>2022-06-15T13:41:03Z</time>
      </trkpt>
      <trkpt lat="45.29672" lon="5.84797">
        <ele>1165</ele>
        <time>2022-06-15T13:41:06Z</time>
      </trkpt>
      <trkpt lat="45.29711" lon="5.84742">
        <ele>1190</ele>
        <time>2022-06-15T13:41:19Z</time>
      </trkpt>
      <trkpt lat="45.29717" lon="5.84741">
        <ele>1192</ele>
        <time>2022-06-15T13:41:20Z</time>
      </trkpt>
      <trkpt lat="45.2975" lon="5.84762">
        <ele>1196</ele>
        <time>2022-06-15T13:41:29Z</time>
      </trkpt>
      <trkpt lat="45.2977" lon="5.84755">
        <ele>1203</ele>
        <time>2022-06-15T13:41:34Z</time>
      </trkpt>
      <trkpt lat="45.29799" lon="5.84759">
        <ele>1209</ele>
        <time>2022-06-15T13:41:40Z</time>
      </trkpt>
      <trkpt lat="45.29833" lon="5.84772">
        <ele>1214</ele>
        <time>2022-06-15T13:41:49Z</time>
      </trkpt>
      <trkpt lat="45.29864" lon="5.84774">
        <ele>1219</ele>
        <time>2022-06-15T13:41:56Z</time>
      </trkpt>
      <trkpt lat="45.29885" lon="5.84754">
        <ele>1230</ele>
        <time>2022-06-15T13:42:02Z</time>
      </trkpt>
      <trkpt lat="45.29891" lon="5.84749">
        <ele>1233</ele>
        <time>2022-06-15T13:42:03Z</time>
      </trkpt>
      <trkpt lat="45.2983" lon="5.84715">
        <ele>1229</ele>
        <time>2022-06-15T13:42:19Z</time>
      </trkpt>
      <trkpt lat="45.29825" lon="5.84703">
        <ele>1231</ele>
        <time>2022-06-15T13:42:21Z</time>
      </trkpt>
      <trkpt lat="45.29804" lon="5.84689">
        <ele>1229</ele>
        <time>2022-06-15T13:42:27Z</time>
      </trkpt>
      <trkpt lat="45.29785" lon="5.84651">
        <ele>1236</ele>
        <time>2022-06-15T13:42:34Z</time>
      </trkpt>
      <trkpt lat="45.2975" lon="5.84613">
        <ele>1238</ele>
        <time>2022-06-15T13:42:44Z</time>
      </trkpt>
      <trkpt lat="45.2966" lon="5.84573">
        <ele>1220</ele>
        <time>2022-06-15T13:43:06Z</time>
      </trkpt>
      <trkpt lat="45.29639" lon="5.84557">
        <ele>1215</ele>
        <time>2022-06-15T13:43:12Z</time>
      </trkpt>
      <trkpt lat="45.29637" lon="5.84543">
        <ele>1214</ele>
        <time>2022-06-15T13:43:14Z</time>
      </trkpt>
      <trkpt lat="45.29643" lon="5.8454">
        <ele>1216</ele>
        <time>2022-06-15T13:43:16Z</time>
      </trkpt>
      <trkpt lat="45.29647" lon="5.84535">
        <ele>1217</ele>
        <time>2022-06-15T13:43:17Z</time>
      </trkpt>
      <trkpt lat="45.29667" lon="5.84503">
        <ele>1223</ele>
        <time>2022-06-15T13:43:24Z</time>
      </trkpt>
      <trkpt lat="45.29729" lon="5.8444">
        <ele>1233</ele>
        <time>2022-06-15T13:43:42Z</time>
      </trkpt>
      <trkpt lat="45.29841" lon="5.8434">
        <ele>1254</ele>
        <time>2022-06-15T13:44:13Z</time>
      </trkpt>
      <trkpt lat="45.2996" lon="5.84222">
        <ele>1271</ele>
        <time>2022-06-15T13:44:47Z</time>
      </trkpt>
      <trkpt lat="45.30015" lon="5.8419">
        <ele>1283</ele>
        <time>2022-06-15T13:45:01Z</time>
      </trkpt>
      <trkpt lat="45.30025" lon="5.84179">
        <ele>1285</ele>
        <time>2022-06-15T13:45:04Z</time>
      </trkpt>
      <trkpt lat="45.3003" lon="5.84168">
        <ele>1285</ele>
        <time>2022-06-15T13:45:06Z</time>
      </trkpt>
      <trkpt lat="45.3003" lon="5.84163">
        <ele>1285</ele>
        <time>2022-06-15T13:45:07Z</time>
      </trkpt>
      <trkpt lat="45.3003" lon="5.84159">
        <ele>1285</ele>
        <time>2022-06-15T13:45:07Z</time>
      </trkpt>
      <trkpt lat="45.30029" lon="5.84151">
        <ele>1286</ele>
        <time>2022-06-15T13:45:09Z</time>
      </trkpt>
      <trkpt lat="45.30026" lon="5.84141">
        <ele>1286</ele>
        <time>2022-06-15T13:45:10Z</time>
      </trkpt>
      <trkpt lat="45.29992" lon="5.84107">
        <ele>1285</ele>
        <time>2022-06-15T13:45:20Z</time>
      </trkpt>
      <trkpt lat="45.29953" lon="5.84072">
        <ele>1287</ele>
        <time>2022-06-15T13:45:31Z</time>
      </trkpt>
      <trkpt lat="45.29947" lon="5.84063">
        <ele>1289</ele>
        <time>2022-06-15T13:45:33Z</time>
      </trkpt>
      <trkpt lat="45.29945" lon="5.84057">
        <ele>1291</ele>
        <time>2022-06-15T13:45:34Z</time>
      </trkpt>
      <trkpt lat="45.29948" lon="5.84049">
        <ele>1295</ele>
        <time>2022-06-15T13:45:35Z</time>
      </trkpt>
      <trkpt lat="45.29954" lon="5.84045">
        <ele>1298</ele>
        <time>2022-06-15T13:45:37Z</time>
      </trkpt>
      <trkpt lat="45.29958" lon="5.84045">
        <ele>1299</ele>
        <time>2022-06-15T13:45:38Z</time>
      </trkpt>
      <trkpt lat="45.29985" lon="5.84067">
        <ele>1295</ele>
        <time>2022-06-15T13:45:45Z</time>
      </trkpt>
      <trkpt lat="45.29992" lon="5.84071">
        <ele>1295</ele>
        <time>2022-06-15T13:45:47Z</time>
      </trkpt>
      <trkpt lat="45.30007" lon="5.84075">
        <ele>1295</ele>
        <time>2022-06-15T13:45:50Z</time>
      </trkpt>
      <trkpt lat="45.29847" lon="5.83901">
        <ele>1343</ele>
        <time>2022-06-15T13:46:38Z</time>
      </trkpt>
      <trkpt lat="45.29605" lon="5.83828">
        <ele>1324</ele>
        <time>2022-06-15T13:47:35Z</time>
      </trkpt>
      <trkpt lat="45.29509" lon="5.83736">
        <ele>1348</ele>
        <time>2022-06-15T13:48:02Z</time>
      </trkpt>
      <trkpt lat="45.29405" lon="5.83772">
        <ele>1335</ele>
        <time>2022-06-15T13:48:27Z</time>
      </trkpt>
      <trkpt lat="45.29513" lon="5.83655">
        <ele>1383</ele>
        <time>2022-06-15T13:48:59Z</time>
      </trkpt>
      <trkpt lat="45.29334" lon="5.83666">
        <ele>1378</ele>
        <time>2022-06-15T13:49:41Z</time>
      </trkpt>
      <trkpt lat="45.29332" lon="5.83638">
        <ele>1381</ele>
        <time>2022-06-15T13:49:45Z</time>
      </trkpt>
      <trkpt lat="45.2932" lon="5.83633">
        <ele>1376</ele>
        <time>2022-06-15T13:49:48Z</time>
      </trkpt>
      <trkpt lat="45.29314" lon="5.83625">
        <ele>1374</ele>
        <time>2022-06-15T13:49:50Z</time>
      </trkpt>
      <trkpt lat="45.29305" lon="5.83629">
        <ele>1369</ele>
        <time>2022-06-15T13:49:53Z</time>
      </trkpt>
      <trkpt lat="45.29286" lon="5.83619">
        <ele>1362</ele>
        <time>2022-06-15T13:49:57Z</time>
      </trkpt>
      <trkpt lat="45.2929" lon="5.83635">
        <ele>1361</ele>
        <time>2022-06-15T13:50:00Z</time>
      </trkpt>
      <trkpt lat="45.29259" lon="5.8362">
        <ele>1349</ele>
        <time>2022-06-15T13:50:08Z</time>
      </trkpt>
      <trkpt lat="45.29234" lon="5.83619">
        <ele>1340</ele>
        <time>2022-06-15T13:50:14Z</time>
      </trkpt>
      <trkpt lat="45.29209" lon="5.83624">
        <ele>1332</ele>
        <time>2022-06-15T13:50:19Z</time>
      </trkpt>
      <trkpt lat="45.29141" lon="5.83625">
        <ele>1311</ele>
        <time>2022-06-15T13:50:35Z</time>
      </trkpt>
      <trkpt lat="45.29111" lon="5.83622">
        <ele>1303</ele>
        <time>2022-06-15T13:50:42Z</time>
      </trkpt>
      <trkpt lat="45.2908" lon="5.83613">
        <ele>1294</ele>
        <time>2022-06-15T13:50:50Z</time>
      </trkpt>
      <trkpt lat="45.29051" lon="5.83614">
        <ele>1283</ele>
        <time>2022-06-15T13:50:56Z</time>
      </trkpt>
      <trkpt lat="45.29031" lon="5.8362">
        <ele>1275</ele>
        <time>2022-06-15T13:51:01Z</time>
      </trkpt>
      <trkpt lat="45.29013" lon="5.83622">
        <ele>1268</ele>
        <time>2022-06-15T13:51:05Z</time>
      </trkpt>
      <trkpt lat="45.28999" lon="5.83618">
        <ele>1263</ele>
        <time>2022-06-15T13:51:09Z</time>
      </trkpt>
      <trkpt lat="45.28988" lon="5.83607">
        <ele>1260</ele>
        <time>2022-06-15T13:51:12Z</time>
      </trkpt>
      <trkpt lat="45.28979" lon="5.8361">
        <ele>1257</ele>
        <time>2022-06-15T13:51:14Z</time>
      </trkpt>
      <trkpt lat="45.28973" lon="5.83618">
        <ele>1255</ele>
        <time>2022-06-15T13:51:16Z</time>
      </trkpt>
      <trkpt lat="45.28959" lon="5.83626">
        <ele>1251</ele>
        <time>2022-06-15T13:51:20Z</time>
      </trkpt>
      <trkpt lat="45.28933" lon="5.83652">
        <ele>1246</ele>
        <time>2022-06-15T13:51:27Z</time>
      </trkpt>
      <trkpt lat="45.28919" lon="5.83675">
        <ele>1243</ele>
        <time>2022-06-15T13:51:32Z</time>
      </trkpt>
      <trkpt lat="45.28902" lon="5.83707">
        <ele>1232</ele>
        <time>2022-06-15T13:51:39Z</time>
      </trkpt>
      <trkpt lat="45.28895" lon="5.83715">
        <ele>1229</ele>
        <time>2022-06-15T13:51:41Z</time>
      </trkpt>
      <trkpt lat="45.28886" lon="5.8372">
        <ele>1226</ele>
        <time>2022-06-15T13:51:43Z</time>
      </trkpt>
      <trkpt lat="45.28876" lon="5.83718">
        <ele>1225</ele>
        <time>2022-06-15T13:51:45Z</time>
      </trkpt>
      <trkpt lat="45.28866" lon="5.83719">
        <ele>1222</ele>
        <time>2022-06-15T13:51:48Z</time>
      </trkpt>
      <trkpt lat="45.28851" lon="5.83733">
        <ele>1218</ele>
        <time>2022-06-15T13:51:52Z</time>
      </trkpt>
      <trkpt lat="45.28843" lon="5.83749">
        <ele>1216</ele>
        <time>2022-06-15T13:51:55Z</time>
      </trkpt>
      <trkpt lat="45.28842" lon="5.83769">
        <ele>1212</ele>
        <time>2022-06-15T13:51:58Z</time>
      </trkpt>
      <trkpt lat="45.28842" lon="5.83783">
        <ele>1208</ele>
        <time>2022-06-15T13:52:01Z</time>
      </trkpt>
      <trkpt lat="45.28849" lon="5.83802">
        <ele>1204</ele>
        <time>2022-06-15T13:52:04Z</time>
      </trkpt>
      <trkpt lat="45.28861" lon="5.83809">
        <ele>1201</ele>
        <time>2022-06-15T13:52:07Z</time>
      </trkpt>
      <trkpt lat="45.28878" lon="5.83815">
        <ele>1199</ele>
        <time>2022-06-15T13:52:11Z</time>
      </trkpt>
      <trkpt lat="45.28891" lon="5.83823">
        <ele>1195</ele>
        <time>2022-06-15T13:52:15Z</time>
      </trkpt>
      <trkpt lat="45.28899" lon="5.83836">
        <ele>1190</ele>
        <time>2022-06-15T13:52:17Z</time>
      </trkpt>
      <trkpt lat="45.28909" lon="5.83838">
        <ele>1188</ele>
        <time>2022-06-15T13:52:20Z</time>
      </trkpt>
      <trkpt lat="45.28914" lon="5.83841">
        <ele>1187</ele>
        <time>2022-06-15T13:52:21Z</time>
      </trkpt>
      <trkpt lat="45.28918" lon="5.83847">
        <ele>1185</ele>
        <time>2022-06-15T13:52:22Z</time>
      </trkpt>
      <trkpt lat="45.28922" lon="5.83865">
        <ele>1179</ele>
        <time>2022-06-15T13:52:26Z</time>
      </trkpt>
      <trkpt lat="45.28926" lon="5.83871">
        <ele>1177</ele>
        <time>2022-06-15T13:52:27Z</time>
      </trkpt>
      <trkpt lat="45.28931" lon="5.83871">
        <ele>1177</ele>
        <time>2022-06-15T13:52:28Z</time>
      </trkpt>
      <trkpt lat="45.28944" lon="5.83866">
        <ele>1179</ele>
        <time>2022-06-15T13:52:31Z</time>
      </trkpt>
      <trkpt lat="45.28948" lon="5.83869">
        <ele>1178</ele>
        <time>2022-06-15T13:52:32Z</time>
      </trkpt>
      <trkpt lat="45.28959" lon="5.83904">
        <ele>1165</ele>
        <time>2022-06-15T13:52:39Z</time>
      </trkpt>
      <trkpt lat="45.28963" lon="5.83923">
        <ele>1159</ele>
        <time>2022-06-15T13:52:42Z</time>
      </trkpt>
      <trkpt lat="45.28975" lon="5.83962">
        <ele>1148</ele>
        <time>2022-06-15T13:52:49Z</time>
      </trkpt>
      <trkpt lat="45.28979" lon="5.83987">
        <ele>1142</ele>
        <time>2022-06-15T13:52:53Z</time>
      </trkpt>
      <trkpt lat="45.28981" lon="5.83996">
        <ele>1140</ele>
        <time>2022-06-15T13:52:55Z</time>
      </trkpt>
      <trkpt lat="45.28979" lon="5.84022">
        <ele>1135</ele>
        <time>2022-06-15T13:52:59Z</time>
      </trkpt>
      <trkpt lat="45.28988" lon="5.84047">
        <ele>1130</ele>
        <time>2022-06-15T13:53:03Z</time>
      </trkpt>
      <trkpt lat="45.28989" lon="5.8406">
        <ele>1127</ele>
        <time>2022-06-15T13:53:06Z</time>
      </trkpt>
      <trkpt lat="45.28991" lon="5.84071">
        <ele>1125</ele>
        <time>2022-06-15T13:53:07Z</time>
      </trkpt>
      <trkpt lat="45.28967" lon="5.84116">
        <ele>1116</ele>
        <time>2022-06-15T13:53:17Z</time>
      </trkpt>
      <trkpt lat="45.28959" lon="5.84137">
        <ele>1112</ele>
        <time>2022-06-15T13:53:21Z</time>
      </trkpt>
      <trkpt lat="45.28952" lon="5.84149">
        <ele>1110</ele>
        <time>2022-06-15T13:53:23Z</time>
      </trkpt>
      <trkpt lat="45.28931" lon="5.84163">
        <ele>1106</ele>
        <time>2022-06-15T13:53:29Z</time>
      </trkpt>
      <trkpt lat="45.2891" lon="5.84165">
        <ele>1104</ele>
        <time>2022-06-15T13:53:34Z</time>
      </trkpt>
      <trkpt lat="45.28879" lon="5.84161">
        <ele>1106</ele>
        <time>2022-06-15T13:53:41Z</time>
      </trkpt>
      <trkpt lat="45.28869" lon="5.84162">
        <ele>1106</ele>
        <time>2022-06-15T13:53:43Z</time>
      </trkpt>
      <trkpt lat="45.28844" lon="5.84173">
        <ele>1104</ele>
        <time>2022-06-15T13:53:49Z</time>
      </trkpt>
      <trkpt lat="45.2879" lon="5.84191">
        <ele>1104</ele>
        <time>2022-06-15T13:54:02Z</time>
      </trkpt>
      <trkpt lat="45.28776" lon="5.84204">
        <ele>1103</ele>
        <time>2022-06-15T13:54:06Z</time>
      </trkpt>
      <trkpt lat="45.28753" lon="5.84205">
        <ele>1105</ele>
        <time>2022-06-15T13:54:12Z</time>
      </trkpt>
      <trkpt lat="45.28731" lon="5.8422">
        <ele>1104</ele>
        <time>2022-06-15T13:54:17Z</time>
      </trkpt>
      <trkpt lat="45.28729" lon="5.84231">
        <ele>1102</ele>
        <time>2022-06-15T13:54:19Z</time>
      </trkpt>
      <trkpt lat="45.28721" lon="5.84245">
        <ele>1100</ele>
        <time>2022-06-15T13:54:22Z</time>
      </trkpt>
      <trkpt lat="45.2871" lon="5.84271">
        <ele>1097</ele>
        <time>2022-06-15T13:54:27Z</time>
      </trkpt>
      <trkpt lat="45.28695" lon="5.84282">
        <ele>1097</ele>
        <time>2022-06-15T13:54:31Z</time>
      </trkpt>
      <trkpt lat="45.28672" lon="5.84286">
        <ele>1100</ele>
        <time>2022-06-15T13:54:36Z</time>
      </trkpt>
      <trkpt lat="45.28644" lon="5.84285">
        <ele>1103</ele>
        <time>2022-06-15T13:54:43Z</time>
      </trkpt>
      <trkpt lat="45.28623" lon="5.84289">
        <ele>1105</ele>
        <time>2022-06-15T13:54:48Z</time>
      </trkpt>
      <trkpt lat="45.28564" lon="5.84331">
        <ele>1103</ele>
        <time>2022-06-15T13:55:03Z</time>
      </trkpt>
      <trkpt lat="45.28545" lon="5.84348">
        <ele>1098</ele>
        <time>2022-06-15T13:55:09Z</time>
      </trkpt>
      <trkpt lat="45.2852" lon="5.84367">
        <ele>1092</ele>
        <time>2022-06-15T13:55:15Z</time>
      </trkpt>
      <trkpt lat="45.28444" lon="5.84399">
        <ele>1083</ele>
        <time>2022-06-15T13:55:34Z</time>
      </trkpt>
      <trkpt lat="45.284" lon="5.84413">
        <ele>1080</ele>
        <time>2022-06-15T13:55:44Z</time>
      </trkpt>
      <trkpt lat="45.28354" lon="5.84423">
        <ele>1077</ele>
        <time>2022-06-15T13:55:55Z</time>
      </trkpt>
      <trkpt lat="45.28257" lon="5.84397">
        <ele>1083</ele>
        <time>2022-06-15T13:56:18Z</time>
      </trkpt>
      <trkpt lat="45.28214" lon="5.84412">
        <ele>1077</ele>
        <time>2022-06-15T13:56:28Z</time>
      </trkpt>
      <trkpt lat="45.28207" lon="5.84416">
        <ele>1076</ele>
        <time>2022-06-15T13:56:30Z</time>
      </trkpt>
      <trkpt lat="45.28198" lon="5.84416">
        <ele>1076</ele>
        <time>2022-06-15T13:56:32Z</time>
      </trkpt>
      <trkpt lat="45.28175" lon="5.84425">
        <ele>1071</ele>
        <time>2022-06-15T13:56:38Z</time>
      </trkpt>
      <trkpt lat="45.28157" lon="5.84417">
        <ele>1071</ele>
        <time>2022-06-15T13:56:42Z</time>
      </trkpt>
      <trkpt lat="45.28144" lon="5.844">
        <ele>1072</ele>
        <time>2022-06-15T13:56:46Z</time>
      </trkpt>
      <trkpt lat="45.28132" lon="5.844">
        <ele>1069</ele>
        <time>2022-06-15T13:56:49Z</time>
      </trkpt>
      <trkpt lat="45.28123" lon="5.84404">
        <ele>1066</ele>
        <time>2022-06-15T13:56:51Z</time>
      </trkpt>
      <trkpt lat="45.28105" lon="5.84404">
        <ele>1061</ele>
        <time>2022-06-15T13:56:56Z</time>
      </trkpt>
      <trkpt lat="45.28095" lon="5.84408">
        <ele>1058</ele>
        <time>2022-06-15T13:56:58Z</time>
      </trkpt>
      <trkpt lat="45.28088" lon="5.84407">
        <ele>1056</ele>
        <time>2022-06-15T13:57:00Z</time>
      </trkpt>
      <trkpt lat="45.28082" lon="5.84394">
        <ele>1057</ele>
        <time>2022-06-15T13:57:02Z</time>
      </trkpt>
      <trkpt lat="45.28079" lon="5.84377">
        <ele>1058</ele>
        <time>2022-06-15T13:57:05Z</time>
      </trkpt>
      <trkpt lat="45.28062" lon="5.84338">
        <ele>1055</ele>
        <time>2022-06-15T13:57:13Z</time>
      </trkpt>
      <trkpt lat="45.28047" lon="5.84292">
        <ele>1057</ele>
        <time>2022-06-15T13:57:21Z</time>
      </trkpt>
      <trkpt lat="45.28035" lon="5.84281">
        <ele>1052</ele>
        <time>2022-06-15T13:57:24Z</time>
      </trkpt>
      <trkpt lat="45.28032" lon="5.84278">
        <ele>1050</ele>
        <time>2022-06-15T13:57:25Z</time>
      </trkpt>
      <trkpt lat="45.28017" lon="5.84273">
        <ele>1042</ele>
        <time>2022-06-15T13:57:29Z</time>
      </trkpt>
      <trkpt lat="45.28016" lon="5.84295">
        <ele>1035</ele>
        <time>2022-06-15T13:57:32Z</time>
      </trkpt>
      <trkpt lat="45.2802" lon="5.84319">
        <ele>1030</ele>
        <time>2022-06-15T13:57:36Z</time>
      </trkpt>
      <trkpt lat="45.2802" lon="5.84342">
        <ele>1023</ele>
        <time>2022-06-15T13:57:40Z</time>
      </trkpt>
      <trkpt lat="45.28015" lon="5.84358">
        <ele>1015</ele>
        <time>2022-06-15T13:57:43Z</time>
      </trkpt>
      <trkpt lat="45.2801" lon="5.84384">
        <ele>1002</ele>
        <time>2022-06-15T13:57:48Z</time>
      </trkpt>
      <trkpt lat="45.28009" lon="5.84402">
        <ele>995</ele>
        <time>2022-06-15T13:57:51Z</time>
      </trkpt>
      <trkpt lat="45.28018" lon="5.84453">
        <ele>991</ele>
        <time>2022-06-15T13:57:59Z</time>
      </trkpt>
      <trkpt lat="45.2803" lon="5.84485">
        <ele>993</ele>
        <time>2022-06-15T13:58:05Z</time>
      </trkpt>
      <trkpt lat="45.28056" lon="5.84535">
        <ele>998</ele>
        <time>2022-06-15T13:58:15Z</time>
      </trkpt>
      <trkpt lat="45.28088" lon="5.84559">
        <ele>1012</ele>
        <time>2022-06-15T13:58:24Z</time>
      </trkpt>
      <trkpt lat="45.28112" lon="5.84556">
        <ele>1016</ele>
        <time>2022-06-15T13:58:29Z</time>
      </trkpt>
      <trkpt lat="45.28127" lon="5.84547">
        <ele>1021</ele>
        <time>2022-06-15T13:58:33Z</time>
      </trkpt>
      <trkpt lat="45.28142" lon="5.84549">
        <ele>1022</ele>
        <time>2022-06-15T13:58:37Z</time>
      </trkpt>
      <trkpt lat="45.28168" lon="5.84572">
        <ele>1019</ele>
        <time>2022-06-15T13:58:44Z</time>
      </trkpt>
      <trkpt lat="45.28186" lon="5.84581">
        <ele>1020</ele>
        <time>2022-06-15T13:58:48Z</time>
      </trkpt>
      <trkpt lat="45.28202" lon="5.84586">
        <ele>1021</ele>
        <time>2022-06-15T13:58:52Z</time>
      </trkpt>
      <trkpt lat="45.28217" lon="5.84583">
        <ele>1025</ele>
        <time>2022-06-15T13:58:56Z</time>
      </trkpt>
      <trkpt lat="45.28243" lon="5.84589">
        <ele>1027</ele>
        <time>2022-06-15T13:59:02Z</time>
      </trkpt>
      <trkpt lat="45.28271" lon="5.84577">
        <ele>1032</ele>
        <time>2022-06-15T13:59:09Z</time>
      </trkpt>
      <trkpt lat="45.28303" lon="5.84552">
        <ele>1039</ele>
        <time>2022-06-15T13:59:17Z</time>
      </trkpt>
      <trkpt lat="45.28314" lon="5.84554">
        <ele>1038</ele>
        <time>2022-06-15T13:59:20Z</time>
      </trkpt>
      <trkpt lat="45.28329" lon="5.84564">
        <ele>1036</ele>
        <time>2022-06-15T13:59:24Z</time>
      </trkpt>
      <trkpt lat="45.28377" lon="5.84574">
        <ele>1033</ele>
        <time>2022-06-15T13:59:35Z</time>
      </trkpt>
      <trkpt lat="45.28409" lon="5.84588">
        <ele>1028</ele>
        <time>2022-06-15T13:59:43Z</time>
      </trkpt>
      <trkpt lat="45.28433" lon="5.84578">
        <ele>1032</ele>
        <time>2022-06-15T13:59:49Z</time>
      </trkpt>
      <trkpt lat="45.28457" lon="5.84564">
        <ele>1037</ele>
        <time>2022-06-15T13:59:55Z</time>
      </trkpt>
      <trkpt lat="45.28477" lon="5.84567">
        <ele>1036</ele>
        <time>2022-06-15T13:59:59Z</time>
      </trkpt>
      <trkpt lat="45.28507" lon="5.84563">
        <ele>1039</ele>
        <time>2022-06-15T14:00:06Z</time>
      </trkpt>
      <trkpt lat="45.28526" lon="5.84577">
        <ele>1036</ele>
        <time>2022-06-15T14:00:11Z</time>
      </trkpt>
      <trkpt lat="45.28536" lon="5.84569">
        <ele>1040</ele>
        <time>2022-06-15T14:00:14Z</time>
      </trkpt>
      <trkpt lat="45.28543" lon="5.84568">
        <ele>1041</ele>
        <time>2022-06-15T14:00:16Z</time>
      </trkpt>
      <trkpt lat="45.2855" lon="5.84574">
        <ele>1040</ele>
        <time>2022-06-15T14:00:18Z</time>
      </trkpt>
      <trkpt lat="45.28564" lon="5.84593">
        <ele>1036</ele>
        <time>2022-06-15T14:00:22Z</time>
      </trkpt>
      <trkpt lat="45.28574" lon="5.84596">
        <ele>1037</ele>
        <time>2022-06-15T14:00:25Z</time>
      </trkpt>
      <trkpt lat="45.28581" lon="5.84606">
        <ele>1035</ele>
        <time>2022-06-15T14:00:27Z</time>
      </trkpt>
      <trkpt lat="45.28599" lon="5.84615">
        <ele>1033</ele>
        <time>2022-06-15T14:00:31Z</time>
      </trkpt>
      <trkpt lat="45.28604" lon="5.84621">
        <ele>1032</ele>
        <time>2022-06-15T14:00:33Z</time>
      </trkpt>
      <trkpt lat="45.28613" lon="5.84625">
        <ele>1031</ele>
        <time>2022-06-15T14:00:35Z</time>
      </trkpt>
      <trkpt lat="45.28624" lon="5.84634">
        <ele>1029</ele>
        <time>2022-06-15T14:00:38Z</time>
      </trkpt>
      <trkpt lat="45.28632" lon="5.84634">
        <ele>1029</ele>
        <time>2022-06-15T14:00:40Z</time>
      </trkpt>
      <trkpt lat="45.28646" lon="5.84626">
        <ele>1031</ele>
        <time>2022-06-15T14:00:43Z</time>
      </trkpt>
      <trkpt lat="45.28655" lon="5.84628">
        <ele>1031</ele>
        <time>2022-06-15T14:00:46Z</time>
      </trkpt>
      <trkpt lat="45.28666" lon="5.8462">
        <ele>1033</ele>
        <time>2022-06-15T14:00:48Z</time>
      </trkpt>
      <trkpt lat="45.28674" lon="5.84625">
        <ele>1031</ele>
        <time>2022-06-15T14:00:51Z</time>
      </trkpt>
      <trkpt lat="45.28691" lon="5.84628">
        <ele>1027</ele>
        <time>2022-06-15T14:00:55Z</time>
      </trkpt>
      <trkpt lat="45.28716" lon="5.84623">
        <ele>1025</ele>
        <time>2022-06-15T14:01:00Z</time>
      </trkpt>
      <trkpt lat="45.28735" lon="5.84626">
        <ele>1021</ele>
        <time>2022-06-15T14:01:05Z</time>
      </trkpt>
      <trkpt lat="45.28752" lon="5.84613">
        <ele>1023</ele>
        <time>2022-06-15T14:01:09Z</time>
      </trkpt>
      <trkpt lat="45.28763" lon="5.84613">
        <ele>1022</ele>
        <time>2022-06-15T14:01:12Z</time>
      </trkpt>
      <trkpt lat="45.28773" lon="5.84616">
        <ele>1020</ele>
        <time>2022-06-15T14:01:14Z</time>
      </trkpt>
      <trkpt lat="45.28785" lon="5.84625">
        <ele>1017</ele>
        <time>2022-06-15T14:01:17Z</time>
      </trkpt>
      <trkpt lat="45.28791" lon="5.84634">
        <ele>1014</ele>
        <time>2022-06-15T14:01:20Z</time>
      </trkpt>
      <trkpt lat="45.28795" lon="5.84636">
        <ele>1014</ele>
        <time>2022-06-15T14:01:21Z</time>
      </trkpt>
      <trkpt lat="45.28846" lon="5.84624">
        <ele>1013</ele>
        <time>2022-06-15T14:01:33Z</time>
      </trkpt>
      <trkpt lat="45.28865" lon="5.84625">
        <ele>1010</ele>
        <time>2022-06-15T14:01:37Z</time>
      </trkpt>
      <trkpt lat="45.28886" lon="5.84618">
        <ele>1009</ele>
        <time>2022-06-15T14:01:42Z</time>
      </trkpt>
      <trkpt lat="45.28897" lon="5.84619">
        <ele>1008</ele>
        <time>2022-06-15T14:01:45Z</time>
      </trkpt>
      <trkpt lat="45.28906" lon="5.84624">
        <ele>1006</ele>
        <time>2022-06-15T14:01:47Z</time>
      </trkpt>
      <trkpt lat="45.28934" lon="5.84648">
        <ele>1001</ele>
        <time>2022-06-15T14:01:55Z</time>
      </trkpt>
      <trkpt lat="45.28936" lon="5.84655">
        <ele>999</ele>
        <time>2022-06-15T14:01:56Z</time>
      </trkpt>
      <trkpt lat="45.28935" lon="5.84658">
        <ele>998</ele>
        <time>2022-06-15T14:01:56Z</time>
      </trkpt>
      <trkpt lat="45.28934" lon="5.84664">
        <ele>997</ele>
        <time>2022-06-15T14:01:57Z</time>
      </trkpt>
      <trkpt lat="45.28928" lon="5.84669">
        <ele>996</ele>
        <time>2022-06-15T14:01:59Z</time>
      </trkpt>
      <trkpt lat="45.28907" lon="5.84677">
        <ele>995</ele>
        <time>2022-06-15T14:02:04Z</time>
      </trkpt>
      <trkpt lat="45.28899" lon="5.84683">
        <ele>995</ele>
        <time>2022-06-15T14:02:06Z</time>
      </trkpt>
      <trkpt lat="45.28886" lon="5.84699">
        <ele>993</ele>
        <time>2022-06-15T14:02:10Z</time>
      </trkpt>
      <trkpt lat="45.28873" lon="5.84723">
        <ele>990</ele>
        <time>2022-06-15T14:02:15Z</time>
      </trkpt>
      <trkpt lat="45.28864" lon="5.84731">
        <ele>989</ele>
        <time>2022-06-15T14:02:18Z</time>
      </trkpt>
      <trkpt lat="45.28853" lon="5.84736">
        <ele>989</ele>
        <time>2022-06-15T14:02:20Z</time>
      </trkpt>
      <trkpt lat="45.2885" lon="5.84745">
        <ele>988</ele>
        <time>2022-06-15T14:02:22Z</time>
      </trkpt>
      <trkpt lat="45.2885" lon="5.8475">
        <ele>987</ele>
        <time>2022-06-15T14:02:23Z</time>
      </trkpt>
      <trkpt lat="45.28853" lon="5.84756">
        <ele>986</ele>
        <time>2022-06-15T14:02:24Z</time>
      </trkpt>
      <trkpt lat="45.28887" lon="5.84762">
        <ele>982</ele>
        <time>2022-06-15T14:02:32Z</time>
      </trkpt>
      <trkpt lat="45.28896" lon="5.84769">
        <ele>981</ele>
        <time>2022-06-15T14:02:34Z</time>
      </trkpt>
      <trkpt lat="45.28903" lon="5.84779">
        <ele>979</ele>
        <time>2022-06-15T14:02:37Z</time>
      </trkpt>
      <trkpt lat="45.2891" lon="5.84781">
        <ele>979</ele>
        <time>2022-06-15T14:02:38Z</time>
      </trkpt>
      <trkpt lat="45.28917" lon="5.84788">
        <ele>978</ele>
        <time>2022-06-15T14:02:40Z</time>
      </trkpt>
      <trkpt lat="45.28924" lon="5.84792">
        <ele>978</ele>
        <time>2022-06-15T14:02:42Z</time>
      </trkpt>
      <trkpt lat="45.28931" lon="5.84791">
        <ele>979</ele>
        <time>2022-06-15T14:02:44Z</time>
      </trkpt>
      <trkpt lat="45.28938" lon="5.84787">
        <ele>979</ele>
        <time>2022-06-15T14:02:46Z</time>
      </trkpt>
      <trkpt lat="45.28952" lon="5.84773">
        <ele>982</ele>
        <time>2022-06-15T14:02:50Z</time>
      </trkpt>
      <trkpt lat="45.28961" lon="5.8477">
        <ele>983</ele>
        <time>2022-06-15T14:02:52Z</time>
      </trkpt>
      <trkpt lat="45.2897" lon="5.84771">
        <ele>983</ele>
        <time>2022-06-15T14:02:54Z</time>
      </trkpt>
      <trkpt lat="45.28984" lon="5.84771">
        <ele>984</ele>
        <time>2022-06-15T14:02:57Z</time>
      </trkpt>
      <trkpt lat="45.29015" lon="5.84778">
        <ele>987</ele>
        <time>2022-06-15T14:03:04Z</time>
      </trkpt>
      <trkpt lat="45.2903" lon="5.84778">
        <ele>989</ele>
        <time>2022-06-15T14:03:08Z</time>
      </trkpt>
      <trkpt lat="45.29042" lon="5.84783">
        <ele>990</ele>
        <time>2022-06-15T14:03:11Z</time>
      </trkpt>
      <trkpt lat="45.29042" lon="5.84799">
        <ele>989</ele>
        <time>2022-06-15T14:03:13Z</time>
      </trkpt>
      <trkpt lat="45.29043" lon="5.84804">
        <ele>989</ele>
        <time>2022-06-15T14:03:14Z</time>
      </trkpt>
      <trkpt lat="45.2905" lon="5.84815">
        <ele>989</ele>
        <time>2022-06-15T14:03:17Z</time>
      </trkpt>
      <trkpt lat="45.29053" lon="5.84821">
        <ele>990</ele>
        <time>2022-06-15T14:03:18Z</time>
      </trkpt>
      <trkpt lat="45.29053" lon="5.84835">
        <ele>989</ele>
        <time>2022-06-15T14:03:20Z</time>
      </trkpt>
      <trkpt lat="45.29053" lon="5.84836">
        <ele>989</ele>
        <time>2022-06-15T14:03:20Z</time>
      </trkpt>
      <trkpt lat="45.29038" lon="5.84849">
        <ele>984</ele>
        <time>2022-06-15T14:03:25Z</time>
      </trkpt>
      <trkpt lat="45.29033" lon="5.84853">
        <ele>983</ele>
        <time>2022-06-15T14:03:26Z</time>
      </trkpt>
      <trkpt lat="45.29024" lon="5.84888">
        <ele>978</ele>
        <time>2022-06-15T14:03:32Z</time>
      </trkpt>
      <trkpt lat="45.29021" lon="5.84943">
        <ele>973</ele>
        <time>2022-06-15T14:03:41Z</time>
      </trkpt>
      <trkpt lat="45.29012" lon="5.85023">
        <ele>965</ele>
        <time>2022-06-15T14:03:54Z</time>
      </trkpt>
      <trkpt lat="45.28989" lon="5.85021">
        <ele>960</ele>
        <time>2022-06-15T14:04:00Z</time>
      </trkpt>
      <trkpt lat="45.28984" lon="5.85026">
        <ele>958</ele>
        <time>2022-06-15T14:04:01Z</time>
      </trkpt>
      <trkpt lat="45.28983" lon="5.85032">
        <ele>958</ele>
        <time>2022-06-15T14:04:02Z</time>
      </trkpt>
      <trkpt lat="45.28984" lon="5.85036">
        <ele>957</ele>
        <time>2022-06-15T14:04:03Z</time>
      </trkpt>
      <trkpt lat="45.28999" lon="5.85051">
        <ele>960</ele>
        <time>2022-06-15T14:04:07Z</time>
      </trkpt>
      <trkpt lat="45.29003" lon="5.85057">
        <ele>961</ele>
        <time>2022-06-15T14:04:09Z</time>
      </trkpt>
      <trkpt lat="45.29005" lon="5.85066">
        <ele>960</ele>
        <time>2022-06-15T14:04:10Z</time>
      </trkpt>
      <trkpt lat="45.29004" lon="5.85097">
        <ele>957</ele>
        <time>2022-06-15T14:04:15Z</time>
      </trkpt>
      <trkpt lat="45.29006" lon="5.85105">
        <ele>956</ele>
        <time>2022-06-15T14:04:17Z</time>
      </trkpt>
      <trkpt lat="45.29008" lon="5.85115">
        <ele>955</ele>
        <time>2022-06-15T14:04:18Z</time>
      </trkpt>
      <trkpt lat="45.29019" lon="5.85127">
        <ele>955</ele>
        <time>2022-06-15T14:04:22Z</time>
      </trkpt>
      <trkpt lat="45.29017" lon="5.85132">
        <ele>954</ele>
        <time>2022-06-15T14:04:22Z</time>
      </trkpt>
      <trkpt lat="45.29013" lon="5.85128">
        <ele>954</ele>
        <time>2022-06-15T14:04:24Z</time>
      </trkpt>
      <trkpt lat="45.2901" lon="5.85141">
        <ele>951</ele>
        <time>2022-06-15T14:04:26Z</time>
      </trkpt>
      <trkpt lat="45.29012" lon="5.85146">
        <ele>951</ele>
        <time>2022-06-15T14:04:27Z</time>
      </trkpt>
      <trkpt lat="45.29017" lon="5.85151">
        <ele>951</ele>
        <time>2022-06-15T14:04:28Z</time>
      </trkpt>
      <trkpt lat="45.29033" lon="5.85164">
        <ele>952</ele>
        <time>2022-06-15T14:04:33Z</time>
      </trkpt>
      <trkpt lat="45.29036" lon="5.8517">
        <ele>952</ele>
        <time>2022-06-15T14:04:34Z</time>
      </trkpt>
      <trkpt lat="45.29032" lon="5.85173">
        <ele>951</ele>
        <time>2022-06-15T14:04:35Z</time>
      </trkpt>
      <trkpt lat="45.29054" lon="5.85201">
        <ele>953</ele>
        <time>2022-06-15T14:04:42Z</time>
      </trkpt>
      <trkpt lat="45.2906" lon="5.85206">
        <ele>953</ele>
        <time>2022-06-15T14:04:43Z</time>
      </trkpt>
      <trkpt lat="45.29066" lon="5.85215">
        <ele>953</ele>
        <time>2022-06-15T14:04:45Z</time>
      </trkpt>
      <trkpt lat="45.29077" lon="5.85223">
        <ele>954</ele>
        <time>2022-06-15T14:04:48Z</time>
      </trkpt>
      <trkpt lat="45.29082" lon="5.85226">
        <ele>954</ele>
        <time>2022-06-15T14:04:49Z</time>
      </trkpt>
      <trkpt lat="45.29087" lon="5.85234">
        <ele>954</ele>
        <time>2022-06-15T14:04:51Z</time>
      </trkpt>
      <trkpt lat="45.29086" lon="5.85244">
        <ele>953</ele>
        <time>2022-06-15T14:04:53Z</time>
      </trkpt>
      <trkpt lat="45.29074" lon="5.85261">
        <ele>953</ele>
        <time>2022-06-15T14:04:57Z</time>
      </trkpt>
      <trkpt lat="45.29062" lon="5.85271">
        <ele>953</ele>
        <time>2022-06-15T14:05:00Z</time>
      </trkpt>
      <trkpt lat="45.29026" lon="5.85282">
        <ele>951</ele>
        <time>2022-06-15T14:05:09Z</time>
      </trkpt>
      <trkpt lat="45.2901" lon="5.85281">
        <ele>949</ele>
        <time>2022-06-15T14:05:12Z</time>
      </trkpt>
      <trkpt lat="45.28974" lon="5.85284">
        <ele>945</ele>
        <time>2022-06-15T14:05:21Z</time>
      </trkpt>
      <trkpt lat="45.28954" lon="5.85302">
        <ele>944</ele>
        <time>2022-06-15T14:05:26Z</time>
      </trkpt>
      <trkpt lat="45.28946" lon="5.85314">
        <ele>944</ele>
        <time>2022-06-15T14:05:29Z</time>
      </trkpt>
      <trkpt lat="45.28936" lon="5.85335">
        <ele>945</ele>
        <time>2022-06-15T14:05:33Z</time>
      </trkpt>
      <trkpt lat="45.28928" lon="5.85347">
        <ele>944</ele>
        <time>2022-06-15T14:05:36Z</time>
      </trkpt>
      <trkpt lat="45.28917" lon="5.85359">
        <ele>942</ele>
        <time>2022-06-15T14:05:39Z</time>
      </trkpt>
      <trkpt lat="45.28909" lon="5.85365">
        <ele>940</ele>
        <time>2022-06-15T14:05:41Z</time>
      </trkpt>
      <trkpt lat="45.28901" lon="5.85366">
        <ele>939</ele>
        <time>2022-06-15T14:05:43Z</time>
      </trkpt>
      <trkpt lat="45.28887" lon="5.85362">
        <ele>936</ele>
        <time>2022-06-15T14:05:47Z</time>
      </trkpt>
      <trkpt lat="45.28865" lon="5.85351">
        <ele>932</ele>
        <time>2022-06-15T14:05:52Z</time>
      </trkpt>
      <trkpt lat="45.28854" lon="5.85341">
        <ele>930</ele>
        <time>2022-06-15T14:05:55Z</time>
      </trkpt>
      <trkpt lat="45.28846" lon="5.85339">
        <ele>928</ele>
        <time>2022-06-15T14:05:57Z</time>
      </trkpt>
      <trkpt lat="45.28845" lon="5.85353">
        <ele>929</ele>
        <time>2022-06-15T14:05:59Z</time>
      </trkpt>
      <trkpt lat="45.28852" lon="5.85374">
        <ele>931</ele>
        <time>2022-06-15T14:06:03Z</time>
      </trkpt>
      <trkpt lat="45.28858" lon="5.85386">
        <ele>933</ele>
        <time>2022-06-15T14:06:06Z</time>
      </trkpt>
      <trkpt lat="45.28867" lon="5.85395">
        <ele>934</ele>
        <time>2022-06-15T14:06:08Z</time>
      </trkpt>
      <trkpt lat="45.28866" lon="5.85401">
        <ele>934</ele>
        <time>2022-06-15T14:06:09Z</time>
      </trkpt>
      <trkpt lat="45.28863" lon="5.85407">
        <ele>934</ele>
        <time>2022-06-15T14:06:10Z</time>
      </trkpt>
      <trkpt lat="45.28841" lon="5.85408">
        <ele>931</ele>
        <time>2022-06-15T14:06:15Z</time>
      </trkpt>
      <trkpt lat="45.28828" lon="5.85405">
        <ele>930</ele>
        <time>2022-06-15T14:06:19Z</time>
      </trkpt>
      <trkpt lat="45.2882" lon="5.85401">
        <ele>929</ele>
        <time>2022-06-15T14:06:20Z</time>
      </trkpt>
      <trkpt lat="45.28809" lon="5.854">
        <ele>928</ele>
        <time>2022-06-15T14:06:23Z</time>
      </trkpt>
      <trkpt lat="45.28762" lon="5.85397">
        <ele>923</ele>
        <time>2022-06-15T14:06:34Z</time>
      </trkpt>
      <trkpt lat="45.28742" lon="5.85399">
        <ele>922</ele>
        <time>2022-06-15T14:06:39Z</time>
      </trkpt>
      <trkpt lat="45.28727" lon="5.85389">
        <ele>919</ele>
        <time>2022-06-15T14:06:43Z</time>
      </trkpt>
      <trkpt lat="45.28709" lon="5.85386">
        <ele>917</ele>
        <time>2022-06-15T14:06:47Z</time>
      </trkpt>
      <trkpt lat="45.2868" lon="5.85385">
        <ele>916</ele>
        <time>2022-06-15T14:06:54Z</time>
      </trkpt>
      <trkpt lat="45.28635" lon="5.85378">
        <ele>905</ele>
        <time>2022-06-15T14:07:04Z</time>
      </trkpt>
      <trkpt lat="45.28622" lon="5.85379">
        <ele>902</ele>
        <time>2022-06-15T14:07:07Z</time>
      </trkpt>
      <trkpt lat="45.2861" lon="5.85384">
        <ele>901</ele>
        <time>2022-06-15T14:07:10Z</time>
      </trkpt>
      <trkpt lat="45.28584" lon="5.854">
        <ele>903</ele>
        <time>2022-06-15T14:07:17Z</time>
      </trkpt>
      <trkpt lat="45.28566" lon="5.85418">
        <ele>897</ele>
        <time>2022-06-15T14:07:22Z</time>
      </trkpt>
      <trkpt lat="45.28545" lon="5.85465">
        <ele>893</ele>
        <time>2022-06-15T14:07:31Z</time>
      </trkpt>
      <trkpt lat="45.28528" lon="5.85528">
        <ele>896</ele>
        <time>2022-06-15T14:07:42Z</time>
      </trkpt>
      <trkpt lat="45.2851" lon="5.85587">
        <ele>898</ele>
        <time>2022-06-15T14:07:53Z</time>
      </trkpt>
      <trkpt lat="45.285" lon="5.856">
        <ele>895</ele>
        <time>2022-06-15T14:07:56Z</time>
      </trkpt>
      <trkpt lat="45.28466" lon="5.85636">
        <ele>873</ele>
        <time>2022-06-15T14:08:06Z</time>
      </trkpt>
      <trkpt lat="45.2846" lon="5.85651">
        <ele>871</ele>
        <time>2022-06-15T14:08:09Z</time>
      </trkpt>
      <trkpt lat="45.2846" lon="5.85689">
        <ele>881</ele>
        <time>2022-06-15T14:08:15Z</time>
      </trkpt>
      <trkpt lat="45.28453" lon="5.85715">
        <ele>881</ele>
        <time>2022-06-15T14:08:19Z</time>
      </trkpt>
      <trkpt lat="45.28455" lon="5.85723">
        <ele>885</ele>
        <time>2022-06-15T14:08:21Z</time>
      </trkpt>
      <trkpt lat="45.2846" lon="5.85742">
        <ele>893</ele>
        <time>2022-06-15T14:08:24Z</time>
      </trkpt>
      <trkpt lat="45.28469" lon="5.85757">
        <ele>903</ele>
        <time>2022-06-15T14:08:27Z</time>
      </trkpt>
      <trkpt lat="45.28476" lon="5.85777">
        <ele>911</ele>
        <time>2022-06-15T14:08:31Z</time>
      </trkpt>
      <trkpt lat="45.28517" lon="5.85846">
        <ele>939</ele>
        <time>2022-06-15T14:08:46Z</time>
      </trkpt>
      <trkpt lat="45.28525" lon="5.85867">
        <ele>941</ele>
        <time>2022-06-15T14:08:50Z</time>
      </trkpt>
      <trkpt lat="45.28549" lon="5.85909">
        <ele>949</ele>
        <time>2022-06-15T14:08:59Z</time>
      </trkpt>
      <trkpt lat="45.28558" lon="5.8592">
        <ele>952</ele>
        <time>2022-06-15T14:09:01Z</time>
      </trkpt>
      <trkpt lat="45.28566" lon="5.85927">
        <ele>955</ele>
        <time>2022-06-15T14:09:04Z</time>
      </trkpt>
      <trkpt lat="45.2859" lon="5.85939">
        <ele>963</ele>
        <time>2022-06-15T14:09:10Z</time>
      </trkpt>
      <trkpt lat="45.28607" lon="5.85917">
        <ele>967</ele>
        <time>2022-06-15T14:09:15Z</time>
      </trkpt>
      <trkpt lat="45.28613" lon="5.85912">
        <ele>968</ele>
        <time>2022-06-15T14:09:17Z</time>
      </trkpt>
      <trkpt lat="45.28626" lon="5.8591">
        <ele>971</ele>
        <time>2022-06-15T14:09:20Z</time>
      </trkpt>
      <trkpt lat="45.28645" lon="5.85914">
        <ele>975</ele>
        <time>2022-06-15T14:09:24Z</time>
      </trkpt>
      <trkpt lat="45.28676" lon="5.85914">
        <ele>980</ele>
        <time>2022-06-15T14:09:31Z</time>
      </trkpt>
      <trkpt lat="45.28714" lon="5.85908">
        <ele>986</ele>
        <time>2022-06-15T14:09:40Z</time>
      </trkpt>
      <trkpt lat="45.28738" lon="5.85908">
        <ele>990</ele>
        <time>2022-06-15T14:09:46Z</time>
      </trkpt>
      <trkpt lat="45.28806" lon="5.85936">
        <ele>986</ele>
        <time>2022-06-15T14:10:02Z</time>
      </trkpt>
      <trkpt lat="45.28819" lon="5.85944">
        <ele>985</ele>
        <time>2022-06-15T14:10:06Z</time>
      </trkpt>
      <trkpt lat="45.28909" lon="5.85984">
        <ele>977</ele>
        <time>2022-06-15T14:10:28Z</time>
      </trkpt>
      <trkpt lat="45.29076" lon="5.86011">
        <ele>989</ele>
        <time>2022-06-15T14:11:07Z</time>
      </trkpt>
      <trkpt lat="45.29086" lon="5.86016">
        <ele>990</ele>
        <time>2022-06-15T14:11:10Z</time>
      </trkpt>
      <trkpt lat="45.29107" lon="5.86033">
        <ele>992</ele>
        <time>2022-06-15T14:11:15Z</time>
      </trkpt>
      <trkpt lat="45.29115" lon="5.86036">
        <ele>993</ele>
        <time>2022-06-15T14:11:17Z</time>
      </trkpt>
      <trkpt lat="45.29154" lon="5.8602">
        <ele>997</ele>
        <time>2022-06-15T14:11:27Z</time>
      </trkpt>
      <trkpt lat="45.29336" lon="5.86283">
        <ele>1005</ele>
        <time>2022-06-15T14:12:27Z</time>
      </trkpt>
      <trkpt lat="45.29501" lon="5.8647">
        <ele>1007</ele>
        <time>2022-06-15T14:13:16Z</time>
      </trkpt>
      <trkpt lat="45.29507" lon="5.86451">
        <ele>1011</ele>
        <time>2022-06-15T14:13:20Z</time>
      </trkpt>
      <trkpt lat="45.29542" lon="5.86452">
        <ele>1016</ele>
        <time>2022-06-15T14:13:28Z</time>
      </trkpt>
      <trkpt lat="45.29585" lon="5.86444">
        <ele>1024</ele>
        <time>2022-06-15T14:13:38Z</time>
      </trkpt>
      <trkpt lat="45.29594" lon="5.86446">
        <ele>1025</ele>
        <time>2022-06-15T14:13:40Z</time>
      </trkpt>
      <trkpt lat="45.29608" lon="5.86454">
        <ele>1026</ele>
        <time>2022-06-15T14:13:44Z</time>
      </trkpt>
      <trkpt lat="45.29614" lon="5.86463">
        <ele>1024</ele>
        <time>2022-06-15T14:13:46Z</time>
      </trkpt>
      <trkpt lat="45.29616" lon="5.86476">
        <ele>1021</ele>
        <time>2022-06-15T14:13:48Z</time>
      </trkpt>
      <trkpt lat="45.29607" lon="5.86547">
        <ele>1005</ele>
        <time>2022-06-15T14:14:00Z</time>
      </trkpt>
      <trkpt lat="45.29608" lon="5.86566">
        <ele>1001</ele>
        <time>2022-06-15T14:14:03Z</time>
      </trkpt>
      <trkpt lat="45.29612" lon="5.86579">
        <ele>1000</ele>
        <time>2022-06-15T14:14:05Z</time>
      </trkpt>
      <trkpt lat="45.2962" lon="5.86586">
        <ele>1001</ele>
        <time>2022-06-15T14:14:08Z</time>
      </trkpt>
      <trkpt lat="45.29642" lon="5.86593">
        <ele>1004</ele>
        <time>2022-06-15T14:14:13Z</time>
      </trkpt>
      <trkpt lat="45.29658" lon="5.86602">
        <ele>1006</ele>
        <time>2022-06-15T14:14:17Z</time>
      </trkpt>
      <trkpt lat="45.2967" lon="5.86613">
        <ele>1006</ele>
        <time>2022-06-15T14:14:20Z</time>
      </trkpt>
      <trkpt lat="45.29685" lon="5.86631">
        <ele>1003</ele>
        <time>2022-06-15T14:14:25Z</time>
      </trkpt>
      <trkpt lat="45.29696" lon="5.86639">
        <ele>1003</ele>
        <time>2022-06-15T14:14:28Z</time>
      </trkpt>
      <trkpt lat="45.29741" lon="5.86642">
        <ele>1010</ele>
        <time>2022-06-15T14:14:38Z</time>
      </trkpt>
      <trkpt lat="45.29754" lon="5.8665">
        <ele>1009</ele>
        <time>2022-06-15T14:14:41Z</time>
      </trkpt>
      <trkpt lat="45.29771" lon="5.8667">
        <ele>1003</ele>
        <time>2022-06-15T14:14:47Z</time>
      </trkpt>
      <trkpt lat="45.29781" lon="5.86674">
        <ele>1003</ele>
        <time>2022-06-15T14:14:49Z</time>
      </trkpt>
      <trkpt lat="45.29808" lon="5.86665">
        <ele>1010</ele>
        <time>2022-06-15T14:14:56Z</time>
      </trkpt>
      <trkpt lat="45.29818" lon="5.86665">
        <ele>1012</ele>
        <time>2022-06-15T14:14:58Z</time>
      </trkpt>
      <trkpt lat="45.29897" lon="5.867">
        <ele>1013</ele>
        <time>2022-06-15T14:15:17Z</time>
      </trkpt>
      <trkpt lat="45.29916" lon="5.86714">
        <ele>1011</ele>
        <time>2022-06-15T14:15:22Z</time>
      </trkpt>
      <trkpt lat="45.2993" lon="5.86721">
        <ele>1011</ele>
        <time>2022-06-15T14:15:26Z</time>
      </trkpt>
      <trkpt lat="45.29964" lon="5.86729">
        <ele>1017</ele>
        <time>2022-06-15T14:15:34Z</time>
      </trkpt>
      <trkpt lat="45.29983" lon="5.86736">
        <ele>1019</ele>
        <time>2022-06-15T14:15:38Z</time>
      </trkpt>
      <trkpt lat="45.29989" lon="5.86744">
        <ele>1018</ele>
        <time>2022-06-15T14:15:40Z</time>
      </trkpt>
      <trkpt lat="45.29993" lon="5.86756">
        <ele>1017</ele>
        <time>2022-06-15T14:15:42Z</time>
      </trkpt>
      <trkpt lat="45.29993" lon="5.86769">
        <ele>1016</ele>
        <time>2022-06-15T14:15:45Z</time>
      </trkpt>
      <trkpt lat="45.2999" lon="5.86789">
        <ele>1014</ele>
        <time>2022-06-15T14:15:48Z</time>
      </trkpt>
      <trkpt lat="45.29979" lon="5.86814">
        <ele>1010</ele>
        <time>2022-06-15T14:15:53Z</time>
      </trkpt>
      <trkpt lat="45.29956" lon="5.86856">
        <ele>1002</ele>
        <time>2022-06-15T14:16:01Z</time>
      </trkpt>
      <trkpt lat="45.29953" lon="5.8687">
        <ele>1000</ele>
        <time>2022-06-15T14:16:04Z</time>
      </trkpt>
      <trkpt lat="45.29954" lon="5.86884">
        <ele>1000</ele>
        <time>2022-06-15T14:16:06Z</time>
      </trkpt>
      <trkpt lat="45.29959" lon="5.86892">
        <ele>1000</ele>
        <time>2022-06-15T14:16:08Z</time>
      </trkpt>
      <trkpt lat="45.29966" lon="5.86896">
        <ele>1002</ele>
        <time>2022-06-15T14:16:10Z</time>
      </trkpt>
      <trkpt lat="45.29974" lon="5.86897">
        <ele>1004</ele>
        <time>2022-06-15T14:16:12Z</time>
      </trkpt>
      <trkpt lat="45.30015" lon="5.86888">
        <ele>1015</ele>
        <time>2022-06-15T14:16:21Z</time>
      </trkpt>
      <trkpt lat="45.30038" lon="5.86886">
        <ele>1023</ele>
        <time>2022-06-15T14:16:27Z</time>
      </trkpt>
      <trkpt lat="45.30058" lon="5.86893">
        <ele>1028</ele>
        <time>2022-06-15T14:16:31Z</time>
      </trkpt>
      <trkpt lat="45.30063" lon="5.86908">
        <ele>1026</ele>
        <time>2022-06-15T14:16:34Z</time>
      </trkpt>
      <trkpt lat="45.30065" lon="5.86918">
        <ele>1025</ele>
        <time>2022-06-15T14:16:36Z</time>
      </trkpt>
      <trkpt lat="45.3006" lon="5.86933">
        <ele>1024</ele>
        <time>2022-06-15T14:16:39Z</time>
      </trkpt>
      <trkpt lat="45.30029" lon="5.87014">
        <ele>1012</ele>
        <time>2022-06-15T14:16:54Z</time>
      </trkpt>
      <trkpt lat="45.30031" lon="5.87022">
        <ele>1013</ele>
        <time>2022-06-15T14:16:55Z</time>
      </trkpt>
      <trkpt lat="45.30023" lon="5.87036">
        <ele>1011</ele>
        <time>2022-06-15T14:16:58Z</time>
      </trkpt>
      <trkpt lat="45.30031" lon="5.87022">
        <ele>1013</ele>
        <time>2022-06-15T14:17:01Z</time>
      </trkpt>
      <trkpt lat="45.30054" lon="5.87109">
        <ele>1022</ele>
        <time>2022-06-15T14:17:16Z</time>
      </trkpt>
      <trkpt lat="45.30105" lon="5.87286">
        <ele>1029</ele>
        <time>2022-06-15T14:17:48Z</time>
      </trkpt>
      <trkpt lat="45.3012" lon="5.87332">
        <ele>1029</ele>
        <time>2022-06-15T14:17:56Z</time>
      </trkpt>
      <trkpt lat="45.30125" lon="5.87339">
        <ele>1030</ele>
        <time>2022-06-15T14:17:58Z</time>
      </trkpt>
      <trkpt lat="45.30134" lon="5.87345">
        <ele>1030</ele>
        <time>2022-06-15T14:18:00Z</time>
      </trkpt>
      <trkpt lat="45.30133" lon="5.8735">
        <ele>1030</ele>
        <time>2022-06-15T14:18:01Z</time>
      </trkpt>
      <trkpt lat="45.30133" lon="5.87363">
        <ele>1029</ele>
        <time>2022-06-15T14:18:03Z</time>
      </trkpt>
      <trkpt lat="45.30178" lon="5.87462">
        <ele>1030</ele>
        <time>2022-06-15T14:18:22Z</time>
      </trkpt>
      <trkpt lat="45.30213" lon="5.87601">
        <ele>1028</ele>
        <time>2022-06-15T14:18:47Z</time>
      </trkpt>
      <trkpt lat="45.3023" lon="5.87645">
        <ele>1027</ele>
        <time>2022-06-15T14:18:55Z</time>
      </trkpt>
      <trkpt lat="45.30255" lon="5.87705">
        <ele>1025</ele>
        <time>2022-06-15T14:19:06Z</time>
      </trkpt>
      <trkpt lat="45.30313" lon="5.87853">
        <ele>1020</ele>
        <time>2022-06-15T14:19:34Z</time>
      </trkpt>
      <trkpt lat="45.30339" lon="5.87903">
        <ele>1016</ele>
        <time>2022-06-15T14:19:44Z</time>
      </trkpt>
      <trkpt lat="45.30368" lon="5.87943">
        <ele>1013</ele>
        <time>2022-06-15T14:19:54Z</time>
      </trkpt>
      <trkpt lat="45.30402" lon="5.87971">
        <ele>1010</ele>
        <time>2022-06-15T14:20:03Z</time>
      </trkpt>
      <trkpt lat="45.30425" lon="5.87987">
        <ele>1007</ele>
        <time>2022-06-15T14:20:09Z</time>
      </trkpt>
      <trkpt lat="45.30432" lon="5.88002">
        <ele>1004</ele>
        <time>2022-06-15T14:20:12Z</time>
      </trkpt>
      <trkpt lat="45.30451" lon="5.88026">
        <ele>1000</ele>
        <time>2022-06-15T14:20:18Z</time>
      </trkpt>
      <trkpt lat="45.30505" lon="5.88092">
        <ele>987</ele>
        <time>2022-06-15T14:20:35Z</time>
      </trkpt>
      <trkpt lat="45.30526" lon="5.88117">
        <ele>982</ele>
        <time>2022-06-15T14:20:41Z</time>
      </trkpt>
      <trkpt lat="45.30534" lon="5.88122">
        <ele>981</ele>
        <time>2022-06-15T14:20:43Z</time>
      </trkpt>
      <trkpt lat="45.30542" lon="5.88122">
        <ele>980</ele>
        <time>2022-06-15T14:20:45Z</time>
      </trkpt>
      <trkpt lat="45.30584" lon="5.881">
        <ele>981</ele>
        <time>2022-06-15T14:20:55Z</time>
      </trkpt>
      <trkpt lat="45.3065" lon="5.88112">
        <ele>981</ele>
        <time>2022-06-15T14:21:11Z</time>
      </trkpt>
      <trkpt lat="45.3069" lon="5.88132">
        <ele>982</ele>
        <time>2022-06-15T14:21:21Z</time>
      </trkpt>
      <trkpt lat="45.30697" lon="5.88143">
        <ele>981</ele>
        <time>2022-06-15T14:21:23Z</time>
      </trkpt>
      <trkpt lat="45.30709" lon="5.88184">
        <ele>977</ele>
        <time>2022-06-15T14:21:30Z</time>
      </trkpt>
      <trkpt lat="45.30717" lon="5.882">
        <ele>977</ele>
        <time>2022-06-15T14:21:34Z</time>
      </trkpt>
      <trkpt lat="45.30731" lon="5.88219">
        <ele>977</ele>
        <time>2022-06-15T14:21:38Z</time>
      </trkpt>
      <trkpt lat="45.30756" lon="5.88245">
        <ele>979</ele>
        <time>2022-06-15T14:21:45Z</time>
      </trkpt>
      <trkpt lat="45.30762" lon="5.88256">
        <ele>979</ele>
        <time>2022-06-15T14:21:48Z</time>
      </trkpt>
      <trkpt lat="45.3077" lon="5.88285">
        <ele>978</ele>
        <time>2022-06-15T14:21:53Z</time>
      </trkpt>
      <trkpt lat="45.30765" lon="5.88288">
        <ele>977</ele>
        <time>2022-06-15T14:21:54Z</time>
      </trkpt>
      <trkpt lat="45.30762" lon="5.88295">
        <ele>976</ele>
        <time>2022-06-15T14:21:55Z</time>
      </trkpt>
      <trkpt lat="45.30763" lon="5.88303">
        <ele>975</ele>
        <time>2022-06-15T14:21:57Z</time>
      </trkpt>
      <trkpt lat="45.3079" lon="5.88358">
        <ele>974</ele>
        <time>2022-06-15T14:22:08Z</time>
      </trkpt>
      <trkpt lat="45.30798" lon="5.88369">
        <ele>975</ele>
        <time>2022-06-15T14:22:10Z</time>
      </trkpt>
      <trkpt lat="45.30807" lon="5.88372">
        <ele>976</ele>
        <time>2022-06-15T14:22:13Z</time>
      </trkpt>
      <trkpt lat="45.30821" lon="5.88389">
        <ele>978</ele>
        <time>2022-06-15T14:22:17Z</time>
      </trkpt>
      <trkpt lat="45.30826" lon="5.8839">
        <ele>979</ele>
        <time>2022-06-15T14:22:18Z</time>
      </trkpt>
      <trkpt lat="45.30828" lon="5.88408">
        <ele>978</ele>
        <time>2022-06-15T14:22:21Z</time>
      </trkpt>
      <trkpt lat="45.30839" lon="5.88434">
        <ele>977</ele>
        <time>2022-06-15T14:22:26Z</time>
      </trkpt>
      <trkpt lat="45.30849" lon="5.88444">
        <ele>978</ele>
        <time>2022-06-15T14:22:29Z</time>
      </trkpt>
      <trkpt lat="45.30855" lon="5.88455">
        <ele>978</ele>
        <time>2022-06-15T14:22:31Z</time>
      </trkpt>
      <trkpt lat="45.30933" lon="5.88642">
        <ele>970</ele>
        <time>2022-06-15T14:23:07Z</time>
      </trkpt>
      <trkpt lat="45.3094" lon="5.88653">
        <ele>969</ele>
        <time>2022-06-15T14:23:09Z</time>
      </trkpt>
      <trkpt lat="45.30964" lon="5.88682">
        <ele>969</ele>
        <time>2022-06-15T14:23:17Z</time>
      </trkpt>
      <trkpt lat="45.30969" lon="5.88686">
        <ele>969</ele>
        <time>2022-06-15T14:23:18Z</time>
      </trkpt>
      <trkpt lat="45.30975" lon="5.88671">
        <ele>970</ele>
        <time>2022-06-15T14:23:21Z</time>
      </trkpt>
      <trkpt lat="45.30977" lon="5.88657">
        <ele>971</ele>
        <time>2022-06-15T14:23:23Z</time>
      </trkpt>
      <trkpt lat="45.31" lon="5.88664">
        <ele>972</ele>
        <time>2022-06-15T14:23:29Z</time>
      </trkpt>
      <trkpt lat="45.31013" lon="5.88673">
        <ele>972</ele>
        <time>2022-06-15T14:23:32Z</time>
      </trkpt>
      <trkpt lat="45.31031" lon="5.8868">
        <ele>971</ele>
        <time>2022-06-15T14:23:36Z</time>
      </trkpt>
      <trkpt lat="45.3109" lon="5.887">
        <ele>969</ele>
        <time>2022-06-15T14:23:51Z</time>
      </trkpt>
      <trkpt lat="45.31114" lon="5.88712">
        <ele>966</ele>
        <time>2022-06-15T14:23:57Z</time>
      </trkpt>
      <trkpt lat="45.31158" lon="5.88739">
        <ele>960</ele>
        <time>2022-06-15T14:24:08Z</time>
      </trkpt>
      <trkpt lat="45.3116" lon="5.88744">
        <ele>960</ele>
        <time>2022-06-15T14:24:09Z</time>
      </trkpt>
      <trkpt lat="45.31193" lon="5.88747">
        <ele>958</ele>
        <time>2022-06-15T14:24:16Z</time>
      </trkpt>
      <trkpt lat="45.31222" lon="5.88746">
        <ele>957</ele>
        <time>2022-06-15T14:24:23Z</time>
      </trkpt>
      <trkpt lat="45.30969" lon="5.88696">
        <ele>969</ele>
        <time>2022-06-15T14:25:23Z</time>
      </trkpt>
      <trkpt lat="45.31102" lon="5.89086">
        <ele>965</ele>
        <time>2022-06-15T14:26:34Z</time>
      </trkpt>
      <trkpt lat="45.31109" lon="5.89092">
        <ele>964</ele>
        <time>2022-06-15T14:26:36Z</time>
      </trkpt>
      <trkpt lat="45.31109" lon="5.89146">
        <ele>963</ele>
        <time>2022-06-15T14:26:45Z</time>
      </trkpt>
      <trkpt lat="45.31111" lon="5.89169">
        <ele>962</ele>
        <time>2022-06-15T14:26:49Z</time>
      </trkpt>
      <trkpt lat="45.31117" lon="5.89194">
        <ele>961</ele>
        <time>2022-06-15T14:26:53Z</time>
      </trkpt>
      <trkpt lat="45.31112" lon="5.89215">
        <ele>959</ele>
        <time>2022-06-15T14:26:57Z</time>
      </trkpt>
      <trkpt lat="45.311" lon="5.89233">
        <ele>957</ele>
        <time>2022-06-15T14:27:01Z</time>
      </trkpt>
      <trkpt lat="45.31093" lon="5.89248">
        <ele>954</ele>
        <time>2022-06-15T14:27:04Z</time>
      </trkpt>
      <trkpt lat="45.31089" lon="5.89263">
        <ele>954</ele>
        <time>2022-06-15T14:27:06Z</time>
      </trkpt>
      <trkpt lat="45.31087" lon="5.89282">
        <ele>955</ele>
        <time>2022-06-15T14:27:09Z</time>
      </trkpt>
      <trkpt lat="45.31089" lon="5.89303">
        <ele>955</ele>
        <time>2022-06-15T14:27:13Z</time>
      </trkpt>
      <trkpt lat="45.31093" lon="5.8932">
        <ele>956</ele>
        <time>2022-06-15T14:27:16Z</time>
      </trkpt>
      <trkpt lat="45.3109" lon="5.8941">
        <ele>961</ele>
        <time>2022-06-15T14:27:31Z</time>
      </trkpt>
      <trkpt lat="45.31091" lon="5.89454">
        <ele>961</ele>
        <time>2022-06-15T14:27:38Z</time>
      </trkpt>
      <trkpt lat="45.31089" lon="5.89535">
        <ele>960</ele>
        <time>2022-06-15T14:27:51Z</time>
      </trkpt>
      <trkpt lat="45.31092" lon="5.89557">
        <ele>960</ele>
        <time>2022-06-15T14:27:55Z</time>
      </trkpt>
      <trkpt lat="45.3109" lon="5.89578">
        <ele>959</ele>
        <time>2022-06-15T14:27:58Z</time>
      </trkpt>
      <trkpt lat="45.31097" lon="5.89597">
        <ele>957</ele>
        <time>2022-06-15T14:28:02Z</time>
      </trkpt>
      <trkpt lat="45.31111" lon="5.89612">
        <ele>957</ele>
        <time>2022-06-15T14:28:06Z</time>
      </trkpt>
      <trkpt lat="45.31118" lon="5.89625">
        <ele>956</ele>
        <time>2022-06-15T14:28:09Z</time>
      </trkpt>
      <trkpt lat="45.31126" lon="5.89647">
        <ele>955</ele>
        <time>2022-06-15T14:28:13Z</time>
      </trkpt>
      <trkpt lat="45.31146" lon="5.89724">
        <ele>955</ele>
        <time>2022-06-15T14:28:26Z</time>
      </trkpt>
      <trkpt lat="45.31154" lon="5.89738">
        <ele>957</ele>
        <time>2022-06-15T14:28:29Z</time>
      </trkpt>
      <trkpt lat="45.31175" lon="5.89789">
        <ele>960</ele>
        <time>2022-06-15T14:28:39Z</time>
      </trkpt>
      <trkpt lat="45.31178" lon="5.89792">
        <ele>960</ele>
        <time>2022-06-15T14:28:40Z</time>
      </trkpt>
      <trkpt lat="45.31209" lon="5.89902">
        <ele>961</ele>
        <time>2022-06-15T14:28:59Z</time>
      </trkpt>
      <trkpt lat="45.31212" lon="5.8992">
        <ele>961</ele>
        <time>2022-06-15T14:29:02Z</time>
      </trkpt>
      <trkpt lat="45.31231" lon="5.89964">
        <ele>966</ele>
        <time>2022-06-15T14:29:11Z</time>
      </trkpt>
      <trkpt lat="45.31243" lon="5.90011">
        <ele>966</ele>
        <time>2022-06-15T14:29:19Z</time>
      </trkpt>
      <trkpt lat="45.3125" lon="5.90029">
        <ele>966</ele>
        <time>2022-06-15T14:29:22Z</time>
      </trkpt>
      <trkpt lat="45.31264" lon="5.90055">
        <ele>964</ele>
        <time>2022-06-15T14:29:28Z</time>
      </trkpt>
      <trkpt lat="45.31274" lon="5.90071">
        <ele>963</ele>
        <time>2022-06-15T14:29:31Z</time>
      </trkpt>
      <trkpt lat="45.31286" lon="5.90079">
        <ele>964</ele>
        <time>2022-06-15T14:29:34Z</time>
      </trkpt>
      <trkpt lat="45.31297" lon="5.9009">
        <ele>962</ele>
        <time>2022-06-15T14:29:37Z</time>
      </trkpt>
      <trkpt lat="45.31307" lon="5.90103">
        <ele>958</ele>
        <time>2022-06-15T14:29:41Z</time>
      </trkpt>
      <trkpt lat="45.31328" lon="5.90123">
        <ele>959</ele>
        <time>2022-06-15T14:29:46Z</time>
      </trkpt>
      <trkpt lat="45.31342" lon="5.90141">
        <ele>958</ele>
        <time>2022-06-15T14:29:51Z</time>
      </trkpt>
      <trkpt lat="45.31363" lon="5.90163">
        <ele>956</ele>
        <time>2022-06-15T14:29:57Z</time>
      </trkpt>
      <trkpt lat="45.31382" lon="5.90198">
        <ele>936</ele>
        <time>2022-06-15T14:30:04Z</time>
      </trkpt>
      <trkpt lat="45.31383" lon="5.90205">
        <ele>932</ele>
        <time>2022-06-15T14:30:05Z</time>
      </trkpt>
      <trkpt lat="45.3141" lon="5.9024">
        <ele>942</ele>
        <time>2022-06-15T14:30:14Z</time>
      </trkpt>
      <trkpt lat="45.31436" lon="5.9026">
        <ele>935</ele>
        <time>2022-06-15T14:30:21Z</time>
      </trkpt>
      <trkpt lat="45.31455" lon="5.90268">
        <ele>929</ele>
        <time>2022-06-15T14:30:25Z</time>
      </trkpt>
      <trkpt lat="45.31511" lon="5.90259">
        <ele>945</ele>
        <time>2022-06-15T14:30:39Z</time>
      </trkpt>
      <trkpt lat="45.31535" lon="5.90264">
        <ele>940</ele>
        <time>2022-06-15T14:30:44Z</time>
      </trkpt>
      <trkpt lat="45.31587" lon="5.90261">
        <ele>932</ele>
        <time>2022-06-15T14:30:56Z</time>
      </trkpt>
      <trkpt lat="45.31611" lon="5.90275">
        <ele>926</ele>
        <time>2022-06-15T14:31:02Z</time>
      </trkpt>
      <trkpt lat="45.31617" lon="5.90282">
        <ele>925</ele>
        <time>2022-06-15T14:31:04Z</time>
      </trkpt>
      <trkpt lat="45.31663" lon="5.90492">
        <ele>891</ele>
        <time>2022-06-15T14:31:40Z</time>
      </trkpt>
      <trkpt lat="45.31702" lon="5.90534">
        <ele>889</ele>
        <time>2022-06-15T14:31:52Z</time>
      </trkpt>
      <trkpt lat="45.31713" lon="5.90412">
        <ele>917</ele>
        <time>2022-06-15T14:32:12Z</time>
      </trkpt>
      <trkpt lat="45.31743" lon="5.90498">
        <ele>917</ele>
        <time>2022-06-15T14:32:28Z</time>
      </trkpt>
      <trkpt lat="45.31746" lon="5.90386">
        <ele>917</ele>
        <time>2022-06-15T14:32:46Z</time>
      </trkpt>
      <trkpt lat="45.31782" lon="5.90489">
        <ele>910</ele>
        <time>2022-06-15T14:33:05Z</time>
      </trkpt>
      <trkpt lat="45.31773" lon="5.90386">
        <ele>911</ele>
        <time>2022-06-15T14:33:22Z</time>
      </trkpt>
      <trkpt lat="45.31815" lon="5.90479">
        <ele>901</ele>
        <time>2022-06-15T14:33:40Z</time>
      </trkpt>
      <trkpt lat="45.31806" lon="5.90378">
        <ele>902</ele>
        <time>2022-06-15T14:33:57Z</time>
      </trkpt>
      <trkpt lat="45.31719" lon="5.90131">
        <ele>907</ele>
        <time>2022-06-15T14:34:42Z</time>
      </trkpt>
      <trkpt lat="45.31712" lon="5.90113">
        <ele>908</ele>
        <time>2022-06-15T14:34:46Z</time>
      </trkpt>
      <trkpt lat="45.31699" lon="5.90056">
        <ele>905</ele>
        <time>2022-06-15T14:34:56Z</time>
      </trkpt>
      <trkpt lat="45.31652" lon="5.89968">
        <ele>902</ele>
        <time>2022-06-15T14:35:14Z</time>
      </trkpt>
      <trkpt lat="45.31603" lon="5.89914">
        <ele>910</ele>
        <time>2022-06-15T14:35:28Z</time>
      </trkpt>
      <trkpt lat="45.31595" lon="5.89902">
        <ele>912</ele>
        <time>2022-06-15T14:35:31Z</time>
      </trkpt>
      <trkpt lat="45.31597" lon="5.8988">
        <ele>913</ele>
        <time>2022-06-15T14:35:35Z</time>
      </trkpt>
      <trkpt lat="45.31605" lon="5.89853">
        <ele>913</ele>
        <time>2022-06-15T14:35:39Z</time>
      </trkpt>
      <trkpt lat="45.31608" lon="5.89835">
        <ele>914</ele>
        <time>2022-06-15T14:35:42Z</time>
      </trkpt>
      <trkpt lat="45.31607" lon="5.89806">
        <ele>916</ele>
        <time>2022-06-15T14:35:47Z</time>
      </trkpt>
      <trkpt lat="45.31603" lon="5.89786">
        <ele>918</ele>
        <time>2022-06-15T14:35:51Z</time>
      </trkpt>
      <trkpt lat="45.316" lon="5.89772">
        <ele>920</ele>
        <time>2022-06-15T14:35:53Z</time>
      </trkpt>
      <trkpt lat="45.3161" lon="5.89749">
        <ele>920</ele>
        <time>2022-06-15T14:35:57Z</time>
      </trkpt>
      <trkpt lat="45.31621" lon="5.89718">
        <ele>922</ele>
        <time>2022-06-15T14:36:03Z</time>
      </trkpt>
      <trkpt lat="45.31634" lon="5.89691">
        <ele>922</ele>
        <time>2022-06-15T14:36:09Z</time>
      </trkpt>
      <trkpt lat="45.31666" lon="5.89648">
        <ele>919</ele>
        <time>2022-06-15T14:36:19Z</time>
      </trkpt>
      <trkpt lat="45.31683" lon="5.8962">
        <ele>918</ele>
        <time>2022-06-15T14:36:25Z</time>
      </trkpt>
      <trkpt lat="45.31692" lon="5.89591">
        <ele>918</ele>
        <time>2022-06-15T14:36:30Z</time>
      </trkpt>
      <trkpt lat="45.31692" lon="5.89572">
        <ele>919</ele>
        <time>2022-06-15T14:36:33Z</time>
      </trkpt>
      <trkpt lat="45.31689" lon="5.89554">
        <ele>920</ele>
        <time>2022-06-15T14:36:36Z</time>
      </trkpt>
      <trkpt lat="45.31655" lon="5.89466">
        <ele>924</ele>
        <time>2022-06-15T14:36:53Z</time>
      </trkpt>
      <trkpt lat="45.31634" lon="5.89429">
        <ele>925</ele>
        <time>2022-06-15T14:37:01Z</time>
      </trkpt>
      <trkpt lat="45.31618" lon="5.89391">
        <ele>925</ele>
        <time>2022-06-15T14:37:08Z</time>
      </trkpt>
      <trkpt lat="45.31608" lon="5.8936">
        <ele>924</ele>
        <time>2022-06-15T14:37:13Z</time>
      </trkpt>
      <trkpt lat="45.31606" lon="5.89343">
        <ele>923</ele>
        <time>2022-06-15T14:37:16Z</time>
      </trkpt>
      <trkpt lat="45.31609" lon="5.89329">
        <ele>921</ele>
        <time>2022-06-15T14:37:19Z</time>
      </trkpt>
      <trkpt lat="45.31615" lon="5.89315">
        <ele>919</ele>
        <time>2022-06-15T14:37:21Z</time>
      </trkpt>
      <trkpt lat="45.31619" lon="5.89293">
        <ele>919</ele>
        <time>2022-06-15T14:37:25Z</time>
      </trkpt>
      <trkpt lat="45.31619" lon="5.89271">
        <ele>919</ele>
        <time>2022-06-15T14:37:29Z</time>
      </trkpt>
      <trkpt lat="45.31612" lon="5.89246">
        <ele>920</ele>
        <time>2022-06-15T14:37:33Z</time>
      </trkpt>
      <trkpt lat="45.31605" lon="5.89226">
        <ele>921</ele>
        <time>2022-06-15T14:37:37Z</time>
      </trkpt>
      <trkpt lat="45.31594" lon="5.89211">
        <ele>921</ele>
        <time>2022-06-15T14:37:40Z</time>
      </trkpt>
      <trkpt lat="45.31567" lon="5.8918">
        <ele>921</ele>
        <time>2022-06-15T14:37:48Z</time>
      </trkpt>
      <trkpt lat="45.31541" lon="5.89146">
        <ele>923</ele>
        <time>2022-06-15T14:37:57Z</time>
      </trkpt>
      <trkpt lat="45.31508" lon="5.89113">
        <ele>925</ele>
        <time>2022-06-15T14:38:06Z</time>
      </trkpt>
      <trkpt lat="45.31475" lon="5.89072">
        <ele>927</ele>
        <time>2022-06-15T14:38:16Z</time>
      </trkpt>
      <trkpt lat="45.3144" lon="5.89056">
        <ele>931</ele>
        <time>2022-06-15T14:38:25Z</time>
      </trkpt>
      <trkpt lat="45.31419" lon="5.89037">
        <ele>933</ele>
        <time>2022-06-15T14:38:31Z</time>
      </trkpt>
      <trkpt lat="45.31422" lon="5.89028">
        <ele>934</ele>
        <time>2022-06-15T14:38:32Z</time>
      </trkpt>
      <trkpt lat="45.31443" lon="5.88987">
        <ele>935</ele>
        <time>2022-06-15T14:38:41Z</time>
      </trkpt>
      <trkpt lat="45.3145" lon="5.88969">
        <ele>936</ele>
        <time>2022-06-15T14:38:44Z</time>
      </trkpt>
      <trkpt lat="45.31454" lon="5.88951">
        <ele>938</ele>
        <time>2022-06-15T14:38:47Z</time>
      </trkpt>
      <trkpt lat="45.31454" lon="5.88931">
        <ele>940</ele>
        <time>2022-06-15T14:38:50Z</time>
      </trkpt>
      <trkpt lat="45.31458" lon="5.88922">
        <ele>940</ele>
        <time>2022-06-15T14:38:52Z</time>
      </trkpt>
      <trkpt lat="45.31474" lon="5.88901">
        <ele>942</ele>
        <time>2022-06-15T14:38:57Z</time>
      </trkpt>
      <trkpt lat="45.31504" lon="5.88855">
        <ele>947</ele>
        <time>2022-06-15T14:39:08Z</time>
      </trkpt>
      <trkpt lat="45.31517" lon="5.88825">
        <ele>950</ele>
        <time>2022-06-15T14:39:13Z</time>
      </trkpt>
      <trkpt lat="45.31517" lon="5.88814">
        <ele>951</ele>
        <time>2022-06-15T14:39:15Z</time>
      </trkpt>
      <trkpt lat="45.31528" lon="5.88817">
        <ele>951</ele>
        <time>2022-06-15T14:39:18Z</time>
      </trkpt>
    </trkseg>
  </trk>
</gpx>